<?xml version="1.0" encoding="UTF-8" standalone="no" ?>
<gpx xmlns="http://www.topografix.com/GPX/1/1" xmlns:xsi="http://www.w3.org/2001/XMLSchema-instance" xsi:schemaLocation="http://www.topografix.com/GPX/1/1 http://www.topografix.com/GPX/1/1/gpx.xsd" version="1.1" creator="VisuGPX - https://www.visugpx.com">
  <metadata>
    <name>Refuge du Tourron</name>
    <desc><![CDATA[Petite balade sans grande difficulté ]]></desc>
  </metadata>
  <trk>
    <name><![CDATA[refuge du Touron]]></name>
    <trkseg>
      <trkpt lat="44.72488" lon="6.25489">
        <ele>1292.7651051935</ele>
        <time>2016-09-07T08:38:45Z</time>
      </trkpt>
      <trkpt lat="44.72489" lon="6.25477">
        <ele>1309.0878463145</ele>
        <time>2016-09-07T08:39:17Z</time>
      </trkpt>
      <trkpt lat="44.7249" lon="6.25466">
        <ele>1305.666951105</ele>
        <time>2016-09-07T08:39:29Z</time>
      </trkpt>
      <trkpt lat="44.72493" lon="6.25454">
        <ele>1297.7702930206</ele>
        <time>2016-09-07T08:39:38Z</time>
      </trkpt>
      <trkpt lat="44.725" lon="6.25446">
        <ele>1300.2045564093</ele>
        <time>2016-09-07T08:39:50Z</time>
      </trkpt>
      <trkpt lat="44.72502" lon="6.25435">
        <ele>1299.4618436815</ele>
        <time>2016-09-07T08:39:59Z</time>
      </trkpt>
      <trkpt lat="44.72505" lon="6.25423">
        <ele>1298.3948278772</ele>
        <time>2016-09-07T08:40:08Z</time>
      </trkpt>
      <trkpt lat="44.72509" lon="6.25413">
        <ele>1299.2518053865</ele>
        <time>2016-09-07T08:40:18Z</time>
      </trkpt>
      <trkpt lat="44.7251" lon="6.25402">
        <ele>1294.7962728199</ele>
        <time>2016-09-07T08:40:27Z</time>
      </trkpt>
      <trkpt lat="44.72511" lon="6.25389">
        <ele>1303.4884870602</ele>
        <time>2016-09-07T08:40:46Z</time>
      </trkpt>
      <trkpt lat="44.72509" lon="6.25378">
        <ele>1303.6405823249</ele>
        <time>2016-09-07T08:40:56Z</time>
      </trkpt>
      <trkpt lat="44.72501" lon="6.25373">
        <ele>1309.8742654556</ele>
        <time>2016-09-07T08:41:05Z</time>
      </trkpt>
      <trkpt lat="44.72493" lon="6.25369">
        <ele>1310.7275032382</ele>
        <time>2016-09-07T08:41:18Z</time>
      </trkpt>
      <trkpt lat="44.72485" lon="6.25367">
        <ele>1316.7623353461</ele>
        <time>2016-09-07T08:41:30Z</time>
      </trkpt>
      <trkpt lat="44.72479" lon="6.25368">
        <ele>1324.5676568886</ele>
        <time>2016-09-07T08:41:41Z</time>
      </trkpt>
      <trkpt lat="44.72472" lon="6.25372">
        <ele>1337.7133993637</ele>
        <time>2016-09-07T08:41:51Z</time>
      </trkpt>
      <trkpt lat="44.72464" lon="6.25374">
        <ele>1335.6955459695</ele>
        <time>2016-09-07T08:42:03Z</time>
      </trkpt>
      <trkpt lat="44.72455" lon="6.25377">
        <ele>1332.0969239874</ele>
        <time>2016-09-07T08:42:19Z</time>
      </trkpt>
      <trkpt lat="44.72449" lon="6.25368">
        <ele>1321.4652339993</ele>
        <time>2016-09-07T08:42:35Z</time>
      </trkpt>
      <trkpt lat="44.72443" lon="6.25359">
        <ele>1319.9983255835</ele>
        <time>2016-09-07T08:42:46Z</time>
      </trkpt>
      <trkpt lat="44.7244" lon="6.25348">
        <ele>1316.4219603911</ele>
        <time>2016-09-07T08:42:58Z</time>
      </trkpt>
      <trkpt lat="44.72436" lon="6.25337">
        <ele>1313.7725656731</ele>
        <time>2016-09-07T08:43:08Z</time>
      </trkpt>
      <trkpt lat="44.7243" lon="6.25329">
        <ele>1310.1962690065</ele>
        <time>2016-09-07T08:43:20Z</time>
      </trkpt>
      <trkpt lat="44.72426" lon="6.25318">
        <ele>1310.5552803827</ele>
        <time>2016-09-07T08:43:32Z</time>
      </trkpt>
      <trkpt lat="44.72421" lon="6.25308">
        <ele>1316.768180781</ele>
        <time>2016-09-07T08:43:46Z</time>
      </trkpt>
      <trkpt lat="44.72415" lon="6.253">
        <ele>1321.9899316719</ele>
        <time>2016-09-07T08:43:57Z</time>
      </trkpt>
      <trkpt lat="44.72409" lon="6.2529">
        <ele>1323.6203282885</ele>
        <time>2016-09-07T08:44:26Z</time>
      </trkpt>
      <trkpt lat="44.72408" lon="6.25278">
        <ele>1319.6094227675</ele>
        <time>2016-09-07T08:44:38Z</time>
      </trkpt>
      <trkpt lat="44.72404" lon="6.25268">
        <ele>1322.9568171669</ele>
        <time>2016-09-07T08:44:50Z</time>
      </trkpt>
      <trkpt lat="44.72399" lon="6.25259">
        <ele>1320.5828758162</ele>
        <time>2016-09-07T08:45:02Z</time>
      </trkpt>
      <trkpt lat="44.72395" lon="6.25249">
        <ele>1320.8525573127</ele>
        <time>2016-09-07T08:45:09Z</time>
      </trkpt>
      <trkpt lat="44.7239" lon="6.2524">
        <ele>1324.1563937981</ele>
        <time>2016-09-07T08:45:25Z</time>
      </trkpt>
      <trkpt lat="44.72387" lon="6.25228">
        <ele>1325.8069085917</ele>
        <time>2016-09-07T08:45:41Z</time>
      </trkpt>
      <trkpt lat="44.72382" lon="6.25219">
        <ele>1325.9491682276</ele>
        <time>2016-09-07T08:45:52Z</time>
      </trkpt>
      <trkpt lat="44.72379" lon="6.25208">
        <ele>1323.861269692</ele>
        <time>2016-09-07T08:46:03Z</time>
      </trkpt>
      <trkpt lat="44.7238" lon="6.25196">
        <ele>1327.7833898589</ele>
        <time>2016-09-07T08:46:31Z</time>
      </trkpt>
      <trkpt lat="44.72388" lon="6.2519">
        <ele>1330.2099924274</ele>
        <time>2016-09-07T08:46:45Z</time>
      </trkpt>
      <trkpt lat="44.7239" lon="6.25178">
        <ele>1328.4567299206</ele>
        <time>2016-09-07T08:46:59Z</time>
      </trkpt>
      <trkpt lat="44.72393" lon="6.25166">
        <ele>1326.6551353075</ele>
        <time>2016-09-07T08:47:10Z</time>
      </trkpt>
      <trkpt lat="44.72393" lon="6.25154">
        <ele>1336.8612795509</ele>
        <time>2016-09-07T08:47:28Z</time>
      </trkpt>
      <trkpt lat="44.72396" lon="6.25142">
        <ele>1335.8941996507</ele>
        <time>2016-09-07T08:47:37Z</time>
      </trkpt>
      <trkpt lat="44.72398" lon="6.2513">
        <ele>1336.4449974606</ele>
        <time>2016-09-07T08:47:53Z</time>
      </trkpt>
      <trkpt lat="44.72397" lon="6.25119">
        <ele>1339.6123858243</ele>
        <time>2016-09-07T08:48:06Z</time>
      </trkpt>
      <trkpt lat="44.72396" lon="6.25107">
        <ele>1339.4810585836</ele>
        <time>2016-09-07T08:48:17Z</time>
      </trkpt>
      <trkpt lat="44.72394" lon="6.25095">
        <ele>1341.8431479894</ele>
        <time>2016-09-07T08:48:35Z</time>
      </trkpt>
      <trkpt lat="44.7239" lon="6.25084">
        <ele>1345.5998083325</ele>
        <time>2016-09-07T08:49:01Z</time>
      </trkpt>
      <trkpt lat="44.72387" lon="6.25072">
        <ele>1343.3951040125</ele>
        <time>2016-09-07T08:49:07Z</time>
      </trkpt>
      <trkpt lat="44.72385" lon="6.2506">
        <ele>1348.42513524</ele>
        <time>2016-09-07T08:49:17Z</time>
      </trkpt>
      <trkpt lat="44.72382" lon="6.25049">
        <ele>1346.5258913906</ele>
        <time>2016-09-07T08:49:28Z</time>
      </trkpt>
      <trkpt lat="44.7238" lon="6.25037">
        <ele>1349.8879906759</ele>
        <time>2016-09-07T08:49:43Z</time>
      </trkpt>
      <trkpt lat="44.72377" lon="6.25027">
        <ele>1357.7125082696</ele>
        <time>2016-09-07T08:49:55Z</time>
      </trkpt>
      <trkpt lat="44.72376" lon="6.25016">
        <ele>1351.2411423605</ele>
        <time>2016-09-07T08:50:05Z</time>
      </trkpt>
      <trkpt lat="44.72376" lon="6.25005">
        <ele>1351.1441511409</ele>
        <time>2016-09-07T08:50:14Z</time>
      </trkpt>
      <trkpt lat="44.72378" lon="6.24993">
        <ele>1350.6053421336</ele>
        <time>2016-09-07T08:50:29Z</time>
      </trkpt>
      <trkpt lat="44.72381" lon="6.24983">
        <ele>1350.8766122116</ele>
        <time>2016-09-07T08:50:40Z</time>
      </trkpt>
      <trkpt lat="44.72379" lon="6.24971">
        <ele>1350.8608732719</ele>
        <time>2016-09-07T08:50:48Z</time>
      </trkpt>
      <trkpt lat="44.72379" lon="6.24959">
        <ele>1348.1538570524</ele>
        <time>2016-09-07T08:51:07Z</time>
      </trkpt>
      <trkpt lat="44.72378" lon="6.24947">
        <ele>1347.5563333858</ele>
        <time>2016-09-07T08:51:18Z</time>
      </trkpt>
      <trkpt lat="44.72373" lon="6.24938">
        <ele>1349.2123874051</ele>
        <time>2016-09-07T08:51:25Z</time>
      </trkpt>
      <trkpt lat="44.72369" lon="6.24928">
        <ele>1346.5646307994</ele>
        <time>2016-09-07T08:51:36Z</time>
      </trkpt>
      <trkpt lat="44.72363" lon="6.2492">
        <ele>1356.6847924361</ele>
        <time>2016-09-07T08:51:48Z</time>
      </trkpt>
      <trkpt lat="44.72361" lon="6.24908">
        <ele>1352.60086862</ele>
        <time>2016-09-07T08:52:00Z</time>
      </trkpt>
      <trkpt lat="44.72362" lon="6.24897">
        <ele>1367.919515334</ele>
        <time>2016-09-07T08:52:20Z</time>
      </trkpt>
      <trkpt lat="44.7237" lon="6.2489">
        <ele>1369.4169035762</ele>
        <time>2016-09-07T08:52:30Z</time>
      </trkpt>
      <trkpt lat="44.72377" lon="6.24886">
        <ele>1369.4270205839</ele>
        <time>2016-09-07T08:52:43Z</time>
      </trkpt>
      <trkpt lat="44.72385" lon="6.24881">
        <ele>1370.8029188259</ele>
        <time>2016-09-07T08:52:52Z</time>
      </trkpt>
      <trkpt lat="44.72393" lon="6.24881">
        <ele>1370.3327586585</ele>
        <time>2016-09-07T08:53:04Z</time>
      </trkpt>
      <trkpt lat="44.72401" lon="6.24876">
        <ele>1367.1917395586</ele>
        <time>2016-09-07T08:53:14Z</time>
      </trkpt>
      <trkpt lat="44.72409" lon="6.24878">
        <ele>1369.2297724405</ele>
        <time>2016-09-07T08:53:22Z</time>
      </trkpt>
      <trkpt lat="44.72418" lon="6.24877">
        <ele>1370.7778117392</ele>
        <time>2016-09-07T08:53:34Z</time>
      </trkpt>
      <trkpt lat="44.72427" lon="6.24878">
        <ele>1371.8834335329</ele>
        <time>2016-09-07T08:53:43Z</time>
      </trkpt>
      <trkpt lat="44.72435" lon="6.24878">
        <ele>1376.2300759271</ele>
        <time>2016-09-07T08:53:52Z</time>
      </trkpt>
      <trkpt lat="44.72443" lon="6.24879">
        <ele>1379.5971817987</ele>
        <time>2016-09-07T08:54:01Z</time>
      </trkpt>
      <trkpt lat="44.72451" lon="6.24875">
        <ele>1375.6290858876</ele>
        <time>2016-09-07T08:54:09Z</time>
      </trkpt>
      <trkpt lat="44.72459" lon="6.24874">
        <ele>1380.7866403174</ele>
        <time>2016-09-07T08:54:18Z</time>
      </trkpt>
      <trkpt lat="44.72467" lon="6.2487">
        <ele>1384.0843760362</ele>
        <time>2016-09-07T08:54:28Z</time>
      </trkpt>
      <trkpt lat="44.72473" lon="6.24862">
        <ele>1382.2135655051</ele>
        <time>2016-09-07T08:54:38Z</time>
      </trkpt>
      <trkpt lat="44.72477" lon="6.24852">
        <ele>1374.0500902219</ele>
        <time>2016-09-07T08:54:46Z</time>
      </trkpt>
      <trkpt lat="44.72478" lon="6.2484">
        <ele>1375.6121280974</ele>
        <time>2016-09-07T08:54:58Z</time>
      </trkpt>
      <trkpt lat="44.72472" lon="6.24831">
        <ele>1378.932387279</ele>
        <time>2016-09-07T08:55:09Z</time>
      </trkpt>
      <trkpt lat="44.72466" lon="6.24823">
        <ele>1374.5887398954</ele>
        <time>2016-09-07T08:55:22Z</time>
      </trkpt>
      <trkpt lat="44.72457" lon="6.24825">
        <ele>1377.5668710087</ele>
        <time>2016-09-07T08:56:22Z</time>
      </trkpt>
      <trkpt lat="44.7246" lon="6.24814">
        <ele>1381.9395132393</ele>
        <time>2016-09-07T08:57:01Z</time>
      </trkpt>
      <trkpt lat="44.72465" lon="6.24803">
        <ele>1385.8159122294</ele>
        <time>2016-09-07T08:57:15Z</time>
      </trkpt>
      <trkpt lat="44.72467" lon="6.24792">
        <ele>1384.5386628426</ele>
        <time>2016-09-07T08:57:25Z</time>
      </trkpt>
      <trkpt lat="44.72468" lon="6.24779">
        <ele>1388.0920244865</ele>
        <time>2016-09-07T08:57:43Z</time>
      </trkpt>
      <trkpt lat="44.72469" lon="6.24767">
        <ele>1385.2127366042</ele>
        <time>2016-09-07T08:57:53Z</time>
      </trkpt>
      <trkpt lat="44.72472" lon="6.24755">
        <ele>1386.6817638891</ele>
        <time>2016-09-07T08:58:09Z</time>
      </trkpt>
      <trkpt lat="44.72468" lon="6.24745">
        <ele>1383.1462936142</ele>
        <time>2016-09-07T08:58:24Z</time>
      </trkpt>
      <trkpt lat="44.72461" lon="6.2474">
        <ele>1382.4265769151</ele>
        <time>2016-09-07T08:58:29Z</time>
      </trkpt>
      <trkpt lat="44.72454" lon="6.24735">
        <ele>1391.2395566694</ele>
        <time>2016-09-07T08:58:41Z</time>
      </trkpt>
      <trkpt lat="44.72447" lon="6.2473">
        <ele>1392.0279603137</ele>
        <time>2016-09-07T08:58:52Z</time>
      </trkpt>
      <trkpt lat="44.72442" lon="6.24721">
        <ele>1395.642994798</ele>
        <time>2016-09-07T09:00:10Z</time>
      </trkpt>
      <trkpt lat="44.72435" lon="6.24715">
        <ele>1395.2671132685</ele>
        <time>2016-09-07T09:00:15Z</time>
      </trkpt>
      <trkpt lat="44.72432" lon="6.24705">
        <ele>1405.1382183106</ele>
        <time>2016-09-07T09:01:50Z</time>
      </trkpt>
      <trkpt lat="44.72426" lon="6.24696">
        <ele>1399.1496143151</ele>
        <time>2016-09-07T09:01:56Z</time>
      </trkpt>
      <trkpt lat="44.7242" lon="6.24688">
        <ele>1409.9877743622</ele>
        <time>2016-09-07T09:02:11Z</time>
      </trkpt>
      <trkpt lat="44.72417" lon="6.24678">
        <ele>1411.9900630211</ele>
        <time>2016-09-07T09:02:25Z</time>
      </trkpt>
      <trkpt lat="44.7242" lon="6.24666">
        <ele>1407.4385160032</ele>
        <time>2016-09-07T09:02:41Z</time>
      </trkpt>
      <trkpt lat="44.72422" lon="6.24654">
        <ele>1404.9447939743</ele>
        <time>2016-09-07T09:02:52Z</time>
      </trkpt>
      <trkpt lat="44.72418" lon="6.24643">
        <ele>1407.8648446264</ele>
        <time>2016-09-07T09:03:11Z</time>
      </trkpt>
      <trkpt lat="44.7242" lon="6.24632">
        <ele>1410.2089072381</ele>
        <time>2016-09-07T09:03:24Z</time>
      </trkpt>
      <trkpt lat="44.72421" lon="6.2462">
        <ele>1404.5673703211</ele>
        <time>2016-09-07T09:03:31Z</time>
      </trkpt>
      <trkpt lat="44.72421" lon="6.24608">
        <ele>1407.0018321714</ele>
        <time>2016-09-07T09:03:43Z</time>
      </trkpt>
      <trkpt lat="44.72424" lon="6.24597">
        <ele>1415.8474823331</ele>
        <time>2016-09-07T09:03:55Z</time>
      </trkpt>
      <trkpt lat="44.72428" lon="6.24586">
        <ele>1410.6806024938</ele>
        <time>2016-09-07T09:04:08Z</time>
      </trkpt>
      <trkpt lat="44.72429" lon="6.24574">
        <ele>1407.9468196143</ele>
        <time>2016-09-07T09:04:16Z</time>
      </trkpt>
      <trkpt lat="44.72432" lon="6.24562">
        <ele>1414.3364454078</ele>
        <time>2016-09-07T09:04:30Z</time>
      </trkpt>
      <trkpt lat="44.7243" lon="6.2455">
        <ele>1419.8287290778</ele>
        <time>2016-09-07T09:04:43Z</time>
      </trkpt>
      <trkpt lat="44.7243" lon="6.24539">
        <ele>1427.8070269203</ele>
        <time>2016-09-07T09:04:56Z</time>
      </trkpt>
      <trkpt lat="44.72429" lon="6.24528">
        <ele>1426.5786688762</ele>
        <time>2016-09-07T09:05:07Z</time>
      </trkpt>
      <trkpt lat="44.72427" lon="6.24517">
        <ele>1423.4307022346</ele>
        <time>2016-09-07T09:05:18Z</time>
      </trkpt>
      <trkpt lat="44.7242" lon="6.24524">
        <ele>1429.3865604053</ele>
        <time>2016-09-07T09:05:37Z</time>
      </trkpt>
      <trkpt lat="44.72413" lon="6.24532">
        <ele>1433.2989162554</ele>
        <time>2016-09-07T09:05:45Z</time>
      </trkpt>
      <trkpt lat="44.72408" lon="6.24541">
        <ele>1443.2628792211</ele>
        <time>2016-09-07T09:06:02Z</time>
      </trkpt>
      <trkpt lat="44.724" lon="6.24545">
        <ele>1443.4250887171</ele>
        <time>2016-09-07T09:06:09Z</time>
      </trkpt>
      <trkpt lat="44.72392" lon="6.24544">
        <ele>1435.509917612</ele>
        <time>2016-09-07T09:06:14Z</time>
      </trkpt>
      <trkpt lat="44.72384" lon="6.24544">
        <ele>1434.8158990281</ele>
        <time>2016-09-07T09:06:23Z</time>
      </trkpt>
      <trkpt lat="44.72375" lon="6.24542">
        <ele>1425.3897431823</ele>
        <time>2016-09-07T09:06:37Z</time>
      </trkpt>
      <trkpt lat="44.72369" lon="6.24535">
        <ele>1419.838986514</ele>
        <time>2016-09-07T09:06:46Z</time>
      </trkpt>
      <trkpt lat="44.72362" lon="6.24528">
        <ele>1419.4075795524</ele>
        <time>2016-09-07T09:06:56Z</time>
      </trkpt>
      <trkpt lat="44.72355" lon="6.2452">
        <ele>1424.3137505737</ele>
        <time>2016-09-07T09:07:08Z</time>
      </trkpt>
      <trkpt lat="44.72351" lon="6.2451">
        <ele>1417.6100289023</ele>
        <time>2016-09-07T09:07:20Z</time>
      </trkpt>
      <trkpt lat="44.72346" lon="6.24501">
        <ele>1417.9241839913</ele>
        <time>2016-09-07T09:07:28Z</time>
      </trkpt>
      <trkpt lat="44.72341" lon="6.2449">
        <ele>1411.4172995836</ele>
        <time>2016-09-07T09:07:38Z</time>
      </trkpt>
      <trkpt lat="44.72333" lon="6.24487">
        <ele>1422.1405194032</ele>
        <time>2016-09-07T09:07:49Z</time>
      </trkpt>
      <trkpt lat="44.72324" lon="6.24484">
        <ele>1427.4814235556</ele>
        <time>2016-09-07T09:07:55Z</time>
      </trkpt>
      <trkpt lat="44.72316" lon="6.24488">
        <ele>1436.0900701401</ele>
        <time>2016-09-07T09:08:06Z</time>
      </trkpt>
      <trkpt lat="44.72307" lon="6.24486">
        <ele>1436.1193722677</ele>
        <time>2016-09-07T09:08:16Z</time>
      </trkpt>
      <trkpt lat="44.72299" lon="6.24486">
        <ele>1435.7689600505</ele>
        <time>2016-09-07T09:08:25Z</time>
      </trkpt>
      <trkpt lat="44.72292" lon="6.2448">
        <ele>1428.8371558499</ele>
        <time>2016-09-07T09:08:35Z</time>
      </trkpt>
      <trkpt lat="44.72285" lon="6.24472">
        <ele>1432.5248267696</ele>
        <time>2016-09-07T09:08:55Z</time>
      </trkpt>
      <trkpt lat="44.72277" lon="6.24465">
        <ele>1429.9523123712</ele>
        <time>2016-09-07T09:09:08Z</time>
      </trkpt>
      <trkpt lat="44.7227" lon="6.2446">
        <ele>1425.3302822707</ele>
        <time>2016-09-07T09:09:21Z</time>
      </trkpt>
      <trkpt lat="44.72264" lon="6.24452">
        <ele>1428.0419180812</ele>
        <time>2016-09-07T09:09:29Z</time>
      </trkpt>
      <trkpt lat="44.72257" lon="6.24444">
        <ele>1435.4906956483</ele>
        <time>2016-09-07T09:09:46Z</time>
      </trkpt>
      <trkpt lat="44.72249" lon="6.24442">
        <ele>1439.6862651818</ele>
        <time>2016-09-07T09:09:59Z</time>
      </trkpt>
      <trkpt lat="44.72242" lon="6.24437">
        <ele>1441.8963124938</ele>
        <time>2016-09-07T09:10:05Z</time>
      </trkpt>
      <trkpt lat="44.72235" lon="6.24431">
        <ele>1434.4969835153</ele>
        <time>2016-09-07T09:10:10Z</time>
      </trkpt>
      <trkpt lat="44.7223" lon="6.24421">
        <ele>1423.6688319959</ele>
        <time>2016-09-07T09:10:17Z</time>
      </trkpt>
      <trkpt lat="44.72224" lon="6.24413">
        <ele>1428.29746113</ele>
        <time>2016-09-07T09:10:28Z</time>
      </trkpt>
      <trkpt lat="44.72221" lon="6.24402">
        <ele>1421.4415112342</ele>
        <time>2016-09-07T09:10:35Z</time>
      </trkpt>
      <trkpt lat="44.72227" lon="6.24393">
        <ele>1428.5130110361</ele>
        <time>2016-09-07T09:11:05Z</time>
      </trkpt>
      <trkpt lat="44.72232" lon="6.24384">
        <ele>1432.2336630927</ele>
        <time>2016-09-07T09:11:13Z</time>
      </trkpt>
      <trkpt lat="44.72238" lon="6.24374">
        <ele>1434.4247557732</ele>
        <time>2016-09-07T09:11:28Z</time>
      </trkpt>
      <trkpt lat="44.72243" lon="6.24364">
        <ele>1440.4451093531</ele>
        <time>2016-09-07T09:11:37Z</time>
      </trkpt>
      <trkpt lat="44.72248" lon="6.24354">
        <ele>1437.387795296</ele>
        <time>2016-09-07T09:11:46Z</time>
      </trkpt>
      <trkpt lat="44.72252" lon="6.24345">
        <ele>1442.9648533447</ele>
        <time>2016-09-07T09:11:55Z</time>
      </trkpt>
      <trkpt lat="44.72256" lon="6.24334">
        <ele>1434.9143153178</ele>
        <time>2016-09-07T09:12:11Z</time>
      </trkpt>
      <trkpt lat="44.72257" lon="6.24322">
        <ele>1435.3165889264</ele>
        <time>2016-09-07T09:12:22Z</time>
      </trkpt>
      <trkpt lat="44.72252" lon="6.24315">
        <ele>1444.3191304363</ele>
        <time>2016-09-07T09:12:39Z</time>
      </trkpt>
      <trkpt lat="44.72244" lon="6.24309">
        <ele>1450.8166433062</ele>
        <time>2016-09-07T09:12:58Z</time>
      </trkpt>
      <trkpt lat="44.72238" lon="6.243">
        <ele>1452.8018871093</ele>
        <time>2016-09-07T09:13:11Z</time>
      </trkpt>
      <trkpt lat="44.72231" lon="6.24295">
        <ele>1457.7482563352</ele>
        <time>2016-09-07T09:13:18Z</time>
      </trkpt>
      <trkpt lat="44.72224" lon="6.24287">
        <ele>1450.7611176195</ele>
        <time>2016-09-07T09:13:43Z</time>
      </trkpt>
      <trkpt lat="44.72218" lon="6.24279">
        <ele>1451.5904381891</ele>
        <time>2016-09-07T09:14:12Z</time>
      </trkpt>
      <trkpt lat="44.72216" lon="6.24267">
        <ele>1452.6158063546</ele>
        <time>2016-09-07T09:14:28Z</time>
      </trkpt>
      <trkpt lat="44.72211" lon="6.24257">
        <ele>1458.6761216737</ele>
        <time>2016-09-07T09:14:39Z</time>
      </trkpt>
      <trkpt lat="44.72205" lon="6.24248">
        <ele>1453.4396365521</ele>
        <time>2016-09-07T09:14:48Z</time>
      </trkpt>
      <trkpt lat="44.72198" lon="6.2424">
        <ele>1448.7032260366</ele>
        <time>2016-09-07T09:14:56Z</time>
      </trkpt>
      <trkpt lat="44.7219" lon="6.24236">
        <ele>1466.1115637379</ele>
        <time>2016-09-07T09:15:08Z</time>
      </trkpt>
      <trkpt lat="44.72186" lon="6.24225">
        <ele>1454.0035371696</ele>
        <time>2016-09-07T09:15:15Z</time>
      </trkpt>
      <trkpt lat="44.7218" lon="6.24216">
        <ele>1456.6583293684</ele>
        <time>2016-09-07T09:15:26Z</time>
      </trkpt>
      <trkpt lat="44.72175" lon="6.24208">
        <ele>1458.5212409596</ele>
        <time>2016-09-07T09:15:37Z</time>
      </trkpt>
      <trkpt lat="44.7217" lon="6.24198">
        <ele>1453.5260545014</ele>
        <time>2016-09-07T09:15:47Z</time>
      </trkpt>
      <trkpt lat="44.72166" lon="6.24187">
        <ele>1457.3752392306</ele>
        <time>2016-09-07T09:16:00Z</time>
      </trkpt>
      <trkpt lat="44.72159" lon="6.24182">
        <ele>1453.5508632082</ele>
        <time>2016-09-07T09:16:07Z</time>
      </trkpt>
      <trkpt lat="44.72152" lon="6.24176">
        <ele>1462.1634744266</ele>
        <time>2016-09-07T09:16:16Z</time>
      </trkpt>
      <trkpt lat="44.72146" lon="6.24167">
        <ele>1459.3817312949</ele>
        <time>2016-09-07T09:16:27Z</time>
      </trkpt>
      <trkpt lat="44.72144" lon="6.24155">
        <ele>1461.4788310497</ele>
        <time>2016-09-07T09:16:41Z</time>
      </trkpt>
      <trkpt lat="44.72139" lon="6.24146">
        <ele>1467.906510097</ele>
        <time>2016-09-07T09:16:53Z</time>
      </trkpt>
      <trkpt lat="44.72134" lon="6.24137">
        <ele>1462.1760085642</ele>
        <time>2016-09-07T09:17:04Z</time>
      </trkpt>
      <trkpt lat="44.72132" lon="6.24125">
        <ele>1467.8852920296</ele>
        <time>2016-09-07T09:17:19Z</time>
      </trkpt>
      <trkpt lat="44.72129" lon="6.24115">
        <ele>1462.697223031</ele>
        <time>2016-09-07T09:17:32Z</time>
      </trkpt>
      <trkpt lat="44.72127" lon="6.24103">
        <ele>1472.0884210516</ele>
        <time>2016-09-07T09:17:45Z</time>
      </trkpt>
      <trkpt lat="44.72122" lon="6.24094">
        <ele>1472.9806365974</ele>
        <time>2016-09-07T09:17:57Z</time>
      </trkpt>
      <trkpt lat="44.7212" lon="6.24084">
        <ele>1476.8006626573</ele>
        <time>2016-09-07T09:18:11Z</time>
      </trkpt>
      <trkpt lat="44.72112" lon="6.24078">
        <ele>1474.6323932201</ele>
        <time>2016-09-07T09:18:19Z</time>
      </trkpt>
      <trkpt lat="44.72106" lon="6.24069">
        <ele>1470.8778625829</ele>
        <time>2016-09-07T09:18:29Z</time>
      </trkpt>
      <trkpt lat="44.72101" lon="6.24061">
        <ele>1466.6910552635</ele>
        <time>2016-09-07T09:18:41Z</time>
      </trkpt>
      <trkpt lat="44.72096" lon="6.24051">
        <ele>1467.8409220029</ele>
        <time>2016-09-07T09:18:49Z</time>
      </trkpt>
      <trkpt lat="44.72092" lon="6.2404">
        <ele>1469.4415682963</ele>
        <time>2016-09-07T09:18:59Z</time>
      </trkpt>
      <trkpt lat="44.72088" lon="6.2403">
        <ele>1471.2801178028</ele>
        <time>2016-09-07T09:19:09Z</time>
      </trkpt>
      <trkpt lat="44.72088" lon="6.24018">
        <ele>1477.7578941125</ele>
        <time>2016-09-07T09:19:20Z</time>
      </trkpt>
      <trkpt lat="44.72087" lon="6.24006">
        <ele>1477.4410693576</ele>
        <time>2016-09-07T09:19:43Z</time>
      </trkpt>
      <trkpt lat="44.7208" lon="6.24004">
        <ele>1482.3836676206</ele>
        <time>2016-09-07T09:20:31Z</time>
      </trkpt>
      <trkpt lat="44.72073" lon="6.24007">
        <ele>1481.5520561872</ele>
        <time>2016-09-07T09:25:08Z</time>
      </trkpt>
      <trkpt lat="44.72066" lon="6.2401">
        <ele>1483.4222238286</ele>
        <time>2016-09-07T09:25:22Z</time>
      </trkpt>
      <trkpt lat="44.72057" lon="6.2401">
        <ele>1481.0438352424</ele>
        <time>2016-09-07T09:25:31Z</time>
      </trkpt>
      <trkpt lat="44.7205" lon="6.24005">
        <ele>1481.5092393309</ele>
        <time>2016-09-07T09:25:41Z</time>
      </trkpt>
      <trkpt lat="44.72041" lon="6.24">
        <ele>1483.6462244962</ele>
        <time>2016-09-07T09:25:49Z</time>
      </trkpt>
      <trkpt lat="44.72034" lon="6.23993">
        <ele>1481.4532013246</ele>
        <time>2016-09-07T09:25:59Z</time>
      </trkpt>
      <trkpt lat="44.72028" lon="6.23986">
        <ele>1482.075832284</ele>
        <time>2016-09-07T09:26:06Z</time>
      </trkpt>
      <trkpt lat="44.72023" lon="6.23976">
        <ele>1481.3883046282</ele>
        <time>2016-09-07T09:26:15Z</time>
      </trkpt>
      <trkpt lat="44.72017" lon="6.23968">
        <ele>1482.6367209457</ele>
        <time>2016-09-07T09:26:25Z</time>
      </trkpt>
      <trkpt lat="44.7201" lon="6.2396">
        <ele>1482.1866544268</ele>
        <time>2016-09-07T09:26:35Z</time>
      </trkpt>
      <trkpt lat="44.72003" lon="6.23954">
        <ele>1477.4323453156</ele>
        <time>2016-09-07T09:26:45Z</time>
      </trkpt>
      <trkpt lat="44.71996" lon="6.23946">
        <ele>1483.095743137</ele>
        <time>2016-09-07T09:26:55Z</time>
      </trkpt>
      <trkpt lat="44.71989" lon="6.2394">
        <ele>1485.5609822979</ele>
        <time>2016-09-07T09:27:05Z</time>
      </trkpt>
      <trkpt lat="44.71981" lon="6.23934">
        <ele>1485.9893841373</ele>
        <time>2016-09-07T09:27:14Z</time>
      </trkpt>
      <trkpt lat="44.71974" lon="6.23926">
        <ele>1485.5963486735</ele>
        <time>2016-09-07T09:27:26Z</time>
      </trkpt>
      <trkpt lat="44.7197" lon="6.23916">
        <ele>1487.1863353854</ele>
        <time>2016-09-07T09:27:35Z</time>
      </trkpt>
      <trkpt lat="44.71964" lon="6.23907">
        <ele>1490.49012445</ele>
        <time>2016-09-07T09:27:44Z</time>
      </trkpt>
      <trkpt lat="44.71957" lon="6.239">
        <ele>1486.7731560558</ele>
        <time>2016-09-07T09:27:50Z</time>
      </trkpt>
      <trkpt lat="44.7195" lon="6.23893">
        <ele>1487.8574413519</ele>
        <time>2016-09-07T09:27:59Z</time>
      </trkpt>
      <trkpt lat="44.71947" lon="6.23882">
        <ele>1489.0602873202</ele>
        <time>2016-09-07T09:28:10Z</time>
      </trkpt>
      <trkpt lat="44.71941" lon="6.23874">
        <ele>1489.3126001173</ele>
        <time>2016-09-07T09:28:18Z</time>
      </trkpt>
      <trkpt lat="44.71936" lon="6.23866">
        <ele>1492.3135652296</ele>
        <time>2016-09-07T09:28:27Z</time>
      </trkpt>
      <trkpt lat="44.71928" lon="6.2386">
        <ele>1493.9706280327</ele>
        <time>2016-09-07T09:28:35Z</time>
      </trkpt>
      <trkpt lat="44.71922" lon="6.23853">
        <ele>1489.9234427127</ele>
        <time>2016-09-07T09:28:43Z</time>
      </trkpt>
      <trkpt lat="44.71915" lon="6.23848">
        <ele>1489.5257498884</ele>
        <time>2016-09-07T09:28:48Z</time>
      </trkpt>
      <trkpt lat="44.71908" lon="6.2384">
        <ele>1486.8832743771</ele>
        <time>2016-09-07T09:28:56Z</time>
      </trkpt>
      <trkpt lat="44.71903" lon="6.23831">
        <ele>1491.3962600126</ele>
        <time>2016-09-07T09:29:06Z</time>
      </trkpt>
      <trkpt lat="44.71898" lon="6.2382">
        <ele>1491.741285197</ele>
        <time>2016-09-07T09:29:15Z</time>
      </trkpt>
      <trkpt lat="44.71896" lon="6.2381">
        <ele>1494.4831062214</ele>
        <time>2016-09-07T09:29:25Z</time>
      </trkpt>
      <trkpt lat="44.71894" lon="6.23798">
        <ele>1495.7225030587</ele>
        <time>2016-09-07T09:29:34Z</time>
      </trkpt>
      <trkpt lat="44.7189" lon="6.23787">
        <ele>1494.5810760215</ele>
        <time>2016-09-07T09:29:42Z</time>
      </trkpt>
      <trkpt lat="44.71886" lon="6.23777">
        <ele>1494.114925625</ele>
        <time>2016-09-07T09:29:50Z</time>
      </trkpt>
      <trkpt lat="44.71882" lon="6.23766">
        <ele>1496.8745994525</ele>
        <time>2016-09-07T09:29:57Z</time>
      </trkpt>
      <trkpt lat="44.71875" lon="6.23761">
        <ele>1492.5277864759</ele>
        <time>2016-09-07T09:30:04Z</time>
      </trkpt>
      <trkpt lat="44.7187" lon="6.23751">
        <ele>1493.6356905273</ele>
        <time>2016-09-07T09:30:14Z</time>
      </trkpt>
      <trkpt lat="44.71866" lon="6.2374">
        <ele>1496.0901409027</ele>
        <time>2016-09-07T09:30:22Z</time>
      </trkpt>
      <trkpt lat="44.71861" lon="6.2373">
        <ele>1493.2872981608</ele>
        <time>2016-09-07T09:30:29Z</time>
      </trkpt>
      <trkpt lat="44.71858" lon="6.23718">
        <ele>1489.7442275143</ele>
        <time>2016-09-07T09:30:35Z</time>
      </trkpt>
      <trkpt lat="44.71852" lon="6.23709">
        <ele>1486.8141426433</ele>
        <time>2016-09-07T09:30:45Z</time>
      </trkpt>
      <trkpt lat="44.71849" lon="6.23697">
        <ele>1491.5460125524</ele>
        <time>2016-09-07T09:30:52Z</time>
      </trkpt>
      <trkpt lat="44.71843" lon="6.23688">
        <ele>1498.340140818</ele>
        <time>2016-09-07T09:31:01Z</time>
      </trkpt>
      <trkpt lat="44.7184" lon="6.23678">
        <ele>1498.0090808447</ele>
        <time>2016-09-07T09:31:08Z</time>
      </trkpt>
      <trkpt lat="44.71834" lon="6.23669">
        <ele>1500.8157766101</ele>
        <time>2016-09-07T09:31:16Z</time>
      </trkpt>
      <trkpt lat="44.7183" lon="6.23658">
        <ele>1495.1885715039</ele>
        <time>2016-09-07T09:31:23Z</time>
      </trkpt>
      <trkpt lat="44.71825" lon="6.2365">
        <ele>1493.2696383915</ele>
        <time>2016-09-07T09:31:29Z</time>
      </trkpt>
      <trkpt lat="44.71818" lon="6.23644">
        <ele>1492.2261282121</ele>
        <time>2016-09-07T09:31:34Z</time>
      </trkpt>
      <trkpt lat="44.71812" lon="6.23634">
        <ele>1495.0278913606</ele>
        <time>2016-09-07T09:31:42Z</time>
      </trkpt>
      <trkpt lat="44.71812" lon="6.23623">
        <ele>1496.7361226259</ele>
        <time>2016-09-07T09:31:50Z</time>
      </trkpt>
      <trkpt lat="44.71811" lon="6.23611">
        <ele>1497.5126791856</ele>
        <time>2016-09-07T09:31:58Z</time>
      </trkpt>
      <trkpt lat="44.71809" lon="6.236">
        <ele>1500.5930707336</ele>
        <time>2016-09-07T09:32:07Z</time>
      </trkpt>
      <trkpt lat="44.71805" lon="6.2359">
        <ele>1497.8637410123</ele>
        <time>2016-09-07T09:32:14Z</time>
      </trkpt>
      <trkpt lat="44.71802" lon="6.23579">
        <ele>1500.0705068207</ele>
        <time>2016-09-07T09:32:21Z</time>
      </trkpt>
      <trkpt lat="44.71798" lon="6.23569">
        <ele>1504.7441653867</ele>
        <time>2016-09-07T09:32:28Z</time>
      </trkpt>
      <trkpt lat="44.71792" lon="6.2356">
        <ele>1503.0250643044</ele>
        <time>2016-09-07T09:32:35Z</time>
      </trkpt>
      <trkpt lat="44.71785" lon="6.23553">
        <ele>1500.7810561261</ele>
        <time>2016-09-07T09:32:44Z</time>
      </trkpt>
      <trkpt lat="44.7178" lon="6.23543">
        <ele>1509.1605645117</ele>
        <time>2016-09-07T09:32:55Z</time>
      </trkpt>
      <trkpt lat="44.71779" lon="6.23531">
        <ele>1510.678420356</ele>
        <time>2016-09-07T09:33:07Z</time>
      </trkpt>
      <trkpt lat="44.71778" lon="6.23519">
        <ele>1513.5991856541</ele>
        <time>2016-09-07T09:33:14Z</time>
      </trkpt>
      <trkpt lat="44.71771" lon="6.23512">
        <ele>1508.4472413354</ele>
        <time>2016-09-07T09:33:21Z</time>
      </trkpt>
      <trkpt lat="44.71764" lon="6.2351">
        <ele>1505.2715375624</ele>
        <time>2016-09-07T09:33:26Z</time>
      </trkpt>
      <trkpt lat="44.71756" lon="6.23504">
        <ele>1503.0085935268</ele>
        <time>2016-09-07T09:33:32Z</time>
      </trkpt>
      <trkpt lat="44.71754" lon="6.23493">
        <ele>1507.7971358006</ele>
        <time>2016-09-07T09:33:41Z</time>
      </trkpt>
      <trkpt lat="44.71749" lon="6.23483">
        <ele>1507.0553206271</ele>
        <time>2016-09-07T09:33:50Z</time>
      </trkpt>
      <trkpt lat="44.71751" lon="6.23472">
        <ele>1509.3187555452</ele>
        <time>2016-09-07T09:34:28Z</time>
      </trkpt>
      <trkpt lat="44.71745" lon="6.23463">
        <ele>1513.0855753382</ele>
        <time>2016-09-07T09:35:24Z</time>
      </trkpt>
      <trkpt lat="44.71738" lon="6.23456">
        <ele>1514.4873569924</ele>
        <time>2016-09-07T09:35:33Z</time>
      </trkpt>
      <trkpt lat="44.71731" lon="6.23449">
        <ele>1517.8141583996</ele>
        <time>2016-09-07T09:35:43Z</time>
      </trkpt>
      <trkpt lat="44.71724" lon="6.23443">
        <ele>1516.7583140012</ele>
        <time>2016-09-07T09:35:54Z</time>
      </trkpt>
      <trkpt lat="44.7172" lon="6.23433">
        <ele>1526.2518779805</ele>
        <time>2016-09-07T09:36:08Z</time>
      </trkpt>
      <trkpt lat="44.71712" lon="6.23428">
        <ele>1524.9548029969</ele>
        <time>2016-09-07T09:36:17Z</time>
      </trkpt>
      <trkpt lat="44.71706" lon="6.23424">
        <ele>1522.0396506899</ele>
        <time>2016-09-07T09:36:23Z</time>
      </trkpt>
      <trkpt lat="44.71698" lon="6.23416">
        <ele>1514.6271318897</ele>
        <time>2016-09-07T09:36:28Z</time>
      </trkpt>
      <trkpt lat="44.71694" lon="6.23407">
        <ele>1518.1954658413</ele>
        <time>2016-09-07T09:36:38Z</time>
      </trkpt>
      <trkpt lat="44.7169" lon="6.234">
        <ele>1514.0824376136</ele>
        <time>2016-09-07T09:36:42Z</time>
      </trkpt>
      <trkpt lat="44.71684" lon="6.23392">
        <ele>1506.4546952623</ele>
        <time>2016-09-07T09:36:47Z</time>
      </trkpt>
      <trkpt lat="44.71677" lon="6.23385">
        <ele>1505.8924216994</ele>
        <time>2016-09-07T09:36:54Z</time>
      </trkpt>
      <trkpt lat="44.71674" lon="6.23373">
        <ele>1517.3305679066</ele>
        <time>2016-09-07T09:37:09Z</time>
      </trkpt>
      <trkpt lat="44.71671" lon="6.23363">
        <ele>1518.1940671212</ele>
        <time>2016-09-07T09:37:20Z</time>
      </trkpt>
      <trkpt lat="44.71668" lon="6.23351">
        <ele>1523.2019585676</ele>
        <time>2016-09-07T09:37:30Z</time>
      </trkpt>
      <trkpt lat="44.71671" lon="6.2334">
        <ele>1524.5504081985</ele>
        <time>2016-09-07T09:37:39Z</time>
      </trkpt>
      <trkpt lat="44.71674" lon="6.23328">
        <ele>1527.2597834831</ele>
        <time>2016-09-07T09:37:47Z</time>
      </trkpt>
      <trkpt lat="44.71677" lon="6.23318">
        <ele>1529.5266065103</ele>
        <time>2016-09-07T09:37:59Z</time>
      </trkpt>
      <trkpt lat="44.71682" lon="6.23309">
        <ele>1528.706323005</ele>
        <time>2016-09-07T09:38:09Z</time>
      </trkpt>
      <trkpt lat="44.71685" lon="6.23297">
        <ele>1530.5418622805</ele>
        <time>2016-09-07T09:38:20Z</time>
      </trkpt>
      <trkpt lat="44.71687" lon="6.23285">
        <ele>1529.7145192985</ele>
        <time>2016-09-07T09:38:31Z</time>
      </trkpt>
      <trkpt lat="44.71688" lon="6.23274">
        <ele>1530.2178424462</ele>
        <time>2016-09-07T09:38:40Z</time>
      </trkpt>
      <trkpt lat="44.71692" lon="6.23263">
        <ele>1529.1992936313</ele>
        <time>2016-09-07T09:38:49Z</time>
      </trkpt>
      <trkpt lat="44.71693" lon="6.23251">
        <ele>1531.8260649428</ele>
        <time>2016-09-07T09:39:02Z</time>
      </trkpt>
      <trkpt lat="44.71694" lon="6.23239">
        <ele>1534.4383924622</ele>
        <time>2016-09-07T09:39:11Z</time>
      </trkpt>
      <trkpt lat="44.71689" lon="6.23231">
        <ele>1536.7920526483</ele>
        <time>2016-09-07T09:39:18Z</time>
      </trkpt>
      <trkpt lat="44.71686" lon="6.2322">
        <ele>1537.6735661038</ele>
        <time>2016-09-07T09:39:27Z</time>
      </trkpt>
      <trkpt lat="44.71686" lon="6.23208">
        <ele>1535.6088346219</ele>
        <time>2016-09-07T09:39:38Z</time>
      </trkpt>
      <trkpt lat="44.71683" lon="6.23196">
        <ele>1534.6625937614</ele>
        <time>2016-09-07T09:39:45Z</time>
      </trkpt>
      <trkpt lat="44.71677" lon="6.23193">
        <ele>1537.2044852018</ele>
        <time>2016-09-07T09:39:50Z</time>
      </trkpt>
      <trkpt lat="44.71672" lon="6.23182">
        <ele>1541.0303431764</ele>
        <time>2016-09-07T09:40:02Z</time>
      </trkpt>
      <trkpt lat="44.71671" lon="6.23171">
        <ele>1540.4002600606</ele>
        <time>2016-09-07T09:40:10Z</time>
      </trkpt>
      <trkpt lat="44.71669" lon="6.23159">
        <ele>1542.3711133765</ele>
        <time>2016-09-07T09:40:19Z</time>
      </trkpt>
      <trkpt lat="44.71669" lon="6.23146">
        <ele>1539.8698589925</ele>
        <time>2016-09-07T09:40:29Z</time>
      </trkpt>
      <trkpt lat="44.71667" lon="6.23135">
        <ele>1533.2789661475</ele>
        <time>2016-09-07T09:43:02Z</time>
      </trkpt>
      <trkpt lat="44.71662" lon="6.23127">
        <ele>1531.8445673805</ele>
        <time>2016-09-07T09:46:02Z</time>
      </trkpt>
      <trkpt lat="44.7167" lon="6.23129">
        <ele>1541.1716462169</ele>
        <time>2016-09-07T09:50:02Z</time>
      </trkpt>
      <trkpt lat="44.71665" lon="6.23119">
        <ele>1536.8834036345</ele>
        <time>2016-09-07T09:50:56Z</time>
      </trkpt>
      <trkpt lat="44.7167" lon="6.23114">
        <ele>1534.5941231744</ele>
        <time>2016-09-07T09:51:01Z</time>
      </trkpt>
      <trkpt lat="44.71674" lon="6.23104">
        <ele>1537.3612563185</ele>
        <time>2016-09-07T09:51:08Z</time>
      </trkpt>
      <trkpt lat="44.71672" lon="6.23093">
        <ele>1539.0632730797</ele>
        <time>2016-09-07T09:51:14Z</time>
      </trkpt>
      <trkpt lat="44.71667" lon="6.23087">
        <ele>1537.9216062978</ele>
        <time>2016-09-07T09:51:19Z</time>
      </trkpt>
      <trkpt lat="44.71659" lon="6.23081">
        <ele>1533.096637771</ele>
        <time>2016-09-07T09:51:24Z</time>
      </trkpt>
      <trkpt lat="44.71658" lon="6.23069">
        <ele>1526.6868270563</ele>
        <time>2016-09-07T09:51:31Z</time>
      </trkpt>
      <trkpt lat="44.71657" lon="6.23056">
        <ele>1531.7241161036</ele>
        <time>2016-09-07T09:51:43Z</time>
      </trkpt>
      <trkpt lat="44.71657" lon="6.23045">
        <ele>1534.7222096301</ele>
        <time>2016-09-07T09:51:53Z</time>
      </trkpt>
      <trkpt lat="44.7165" lon="6.2304">
        <ele>1534.3588327803</ele>
        <time>2016-09-07T09:51:58Z</time>
      </trkpt>
      <trkpt lat="44.71645" lon="6.23032">
        <ele>1538.0712327162</ele>
        <time>2016-09-07T09:52:07Z</time>
      </trkpt>
      <trkpt lat="44.7164" lon="6.23022">
        <ele>1536.517412461</ele>
        <time>2016-09-07T09:52:18Z</time>
      </trkpt>
      <trkpt lat="44.71634" lon="6.23013">
        <ele>1539.9765993195</ele>
        <time>2016-09-07T09:52:27Z</time>
      </trkpt>
      <trkpt lat="44.71633" lon="6.23001">
        <ele>1537.6738598369</ele>
        <time>2016-09-07T09:52:38Z</time>
      </trkpt>
      <trkpt lat="44.71636" lon="6.2299">
        <ele>1545.6333705798</ele>
        <time>2016-09-07T09:52:48Z</time>
      </trkpt>
      <trkpt lat="44.71637" lon="6.22978">
        <ele>1545.7331977084</ele>
        <time>2016-09-07T09:52:56Z</time>
      </trkpt>
      <trkpt lat="44.71639" lon="6.22968">
        <ele>1544.0357012959</ele>
        <time>2016-09-07T09:53:04Z</time>
      </trkpt>
      <trkpt lat="44.71637" lon="6.22955">
        <ele>1550.2550494876</ele>
        <time>2016-09-07T09:53:16Z</time>
      </trkpt>
      <trkpt lat="44.71632" lon="6.22946">
        <ele>1545.8609582873</ele>
        <time>2016-09-07T09:53:26Z</time>
      </trkpt>
      <trkpt lat="44.71628" lon="6.22935">
        <ele>1545.0817112798</ele>
        <time>2016-09-07T09:53:33Z</time>
      </trkpt>
      <trkpt lat="44.71631" lon="6.22924">
        <ele>1548.3532996283</ele>
        <time>2016-09-07T09:53:42Z</time>
      </trkpt>
      <trkpt lat="44.71631" lon="6.22913">
        <ele>1549.3315867063</ele>
        <time>2016-09-07T09:53:50Z</time>
      </trkpt>
      <trkpt lat="44.71627" lon="6.22903">
        <ele>1545.9667994022</ele>
        <time>2016-09-07T09:53:58Z</time>
      </trkpt>
      <trkpt lat="44.71631" lon="6.22891">
        <ele>1547.6889832426</ele>
        <time>2016-09-07T09:54:09Z</time>
      </trkpt>
      <trkpt lat="44.71633" lon="6.22879">
        <ele>1551.2346622777</ele>
        <time>2016-09-07T09:54:20Z</time>
      </trkpt>
      <trkpt lat="44.71634" lon="6.22867">
        <ele>1554.521648348</ele>
        <time>2016-09-07T09:54:31Z</time>
      </trkpt>
      <trkpt lat="44.71628" lon="6.2286">
        <ele>1550.1623997905</ele>
        <time>2016-09-07T09:54:37Z</time>
      </trkpt>
      <trkpt lat="44.71625" lon="6.22848">
        <ele>1553.1206064425</ele>
        <time>2016-09-07T09:54:49Z</time>
      </trkpt>
      <trkpt lat="44.71625" lon="6.22835">
        <ele>1553.8422789658</ele>
        <time>2016-09-07T09:55:00Z</time>
      </trkpt>
      <trkpt lat="44.71628" lon="6.22826">
        <ele>1552.6729562787</ele>
        <time>2016-09-07T09:55:07Z</time>
      </trkpt>
      <trkpt lat="44.71624" lon="6.22817">
        <ele>1555.5458111638</ele>
        <time>2016-09-07T09:55:21Z</time>
      </trkpt>
      <trkpt lat="44.71625" lon="6.22804">
        <ele>1552.4584291561</ele>
        <time>2016-09-07T09:55:29Z</time>
      </trkpt>
      <trkpt lat="44.71626" lon="6.22793">
        <ele>1556.8528515965</ele>
        <time>2016-09-07T09:55:36Z</time>
      </trkpt>
      <trkpt lat="44.71631" lon="6.22786">
        <ele>1555.8669990597</ele>
        <time>2016-09-07T09:55:41Z</time>
      </trkpt>
      <trkpt lat="44.71628" lon="6.22774">
        <ele>1559.7509088329</ele>
        <time>2016-09-07T09:55:54Z</time>
      </trkpt>
      <trkpt lat="44.71627" lon="6.22762">
        <ele>1555.1449202019</ele>
        <time>2016-09-07T09:56:03Z</time>
      </trkpt>
      <trkpt lat="44.71629" lon="6.22752">
        <ele>1567.6280983413</ele>
        <time>2016-09-07T09:56:21Z</time>
      </trkpt>
      <trkpt lat="44.71629" lon="6.22739">
        <ele>1558.7606294862</ele>
        <time>2016-09-07T09:56:30Z</time>
      </trkpt>
      <trkpt lat="44.71624" lon="6.22729">
        <ele>1564.4657086131</ele>
        <time>2016-09-07T09:56:38Z</time>
      </trkpt>
      <trkpt lat="44.71627" lon="6.22717">
        <ele>1569.8262517672</ele>
        <time>2016-09-07T09:57:17Z</time>
      </trkpt>
      <trkpt lat="44.71625" lon="6.22705">
        <ele>1570.6922550712</ele>
        <time>2016-09-07T09:57:43Z</time>
      </trkpt>
      <trkpt lat="44.71623" lon="6.22694">
        <ele>1570.7363076039</ele>
        <time>2016-09-07T09:58:52Z</time>
      </trkpt>
      <trkpt lat="44.71616" lon="6.22686">
        <ele>1572.435747924</ele>
        <time>2016-09-07T09:58:59Z</time>
      </trkpt>
      <trkpt lat="44.7161" lon="6.22678">
        <ele>1575.3096757148</ele>
        <time>2016-09-07T09:59:07Z</time>
      </trkpt>
      <trkpt lat="44.71606" lon="6.22668">
        <ele>1573.1771916236</ele>
        <time>2016-09-07T09:59:18Z</time>
      </trkpt>
      <trkpt lat="44.71602" lon="6.22658">
        <ele>1572.5887839781</ele>
        <time>2016-09-07T09:59:26Z</time>
      </trkpt>
      <trkpt lat="44.71598" lon="6.22648">
        <ele>1573.6407478009</ele>
        <time>2016-09-07T09:59:35Z</time>
      </trkpt>
      <trkpt lat="44.71593" lon="6.22639">
        <ele>1582.1565784723</ele>
        <time>2016-09-07T09:59:50Z</time>
      </trkpt>
      <trkpt lat="44.71589" lon="6.22629">
        <ele>1585.4794896991</ele>
        <time>2016-09-07T10:00:11Z</time>
      </trkpt>
      <trkpt lat="44.71584" lon="6.22618">
        <ele>1590.5728664322</ele>
        <time>2016-09-07T10:00:28Z</time>
      </trkpt>
      <trkpt lat="44.71577" lon="6.22616">
        <ele>1596.6245927036</ele>
        <time>2016-09-07T10:01:19Z</time>
      </trkpt>
      <trkpt lat="44.71569" lon="6.2262">
        <ele>1605.1089308978</ele>
        <time>2016-09-07T10:02:41Z</time>
      </trkpt>
      <trkpt lat="44.71563" lon="6.22612">
        <ele>1599.0598219931</ele>
        <time>2016-09-07T10:04:50Z</time>
      </trkpt>
      <trkpt lat="44.71565" lon="6.22599">
        <ele>1598.8927230836</ele>
        <time>2016-09-07T10:04:58Z</time>
      </trkpt>
      <trkpt lat="44.71559" lon="6.22591">
        <ele>1596.9745603953</ele>
        <time>2016-09-07T10:05:07Z</time>
      </trkpt>
      <trkpt lat="44.71553" lon="6.22585">
        <ele>1589.3971966964</ele>
        <time>2016-09-07T10:05:15Z</time>
      </trkpt>
      <trkpt lat="44.71546" lon="6.2258">
        <ele>1587.5366852815</ele>
        <time>2016-09-07T10:05:23Z</time>
      </trkpt>
      <trkpt lat="44.71546" lon="6.22569">
        <ele>1596.3922457602</ele>
        <time>2016-09-07T10:05:44Z</time>
      </trkpt>
      <trkpt lat="44.7154" lon="6.22562">
        <ele>1597.4524121929</ele>
        <time>2016-09-07T10:05:50Z</time>
      </trkpt>
      <trkpt lat="44.71533" lon="6.22555">
        <ele>1595.9052413777</ele>
        <time>2016-09-07T10:05:58Z</time>
      </trkpt>
      <trkpt lat="44.71527" lon="6.22546">
        <ele>1598.1053018422</ele>
        <time>2016-09-07T10:06:08Z</time>
      </trkpt>
      <trkpt lat="44.71524" lon="6.22535">
        <ele>1598.4726763477</ele>
        <time>2016-09-07T10:06:21Z</time>
      </trkpt>
      <trkpt lat="44.7152" lon="6.22524">
        <ele>1599.3244085235</ele>
        <time>2016-09-07T10:06:33Z</time>
      </trkpt>
      <trkpt lat="44.71525" lon="6.22513">
        <ele>1599.3830658851</ele>
        <time>2016-09-07T10:06:43Z</time>
      </trkpt>
      <trkpt lat="44.71524" lon="6.22503">
        <ele>1603.7557691568</ele>
        <time>2016-09-07T10:06:56Z</time>
      </trkpt>
      <trkpt lat="44.71522" lon="6.2249">
        <ele>1604.481285774</ele>
        <time>2016-09-07T10:07:07Z</time>
      </trkpt>
      <trkpt lat="44.71525" lon="6.22479">
        <ele>1612.1179668828</ele>
        <time>2016-09-07T10:07:54Z</time>
      </trkpt>
      <trkpt lat="44.71529" lon="6.22469">
        <ele>1617.2167309985</ele>
        <time>2016-09-07T10:08:06Z</time>
      </trkpt>
      <trkpt lat="44.71527" lon="6.22457">
        <ele>1611.9919044875</ele>
        <time>2016-09-07T10:08:12Z</time>
      </trkpt>
      <trkpt lat="44.71519" lon="6.22453">
        <ele>1612.4952457983</ele>
        <time>2016-09-07T10:08:23Z</time>
      </trkpt>
      <trkpt lat="44.7152" lon="6.22441">
        <ele>1614.9897241121</ele>
        <time>2016-09-07T10:08:39Z</time>
      </trkpt>
      <trkpt lat="44.71528" lon="6.22436">
        <ele>1618.4486980079</ele>
        <time>2016-09-07T10:09:10Z</time>
      </trkpt>
      <trkpt lat="44.71536" lon="6.22433">
        <ele>1621.2338733904</ele>
        <time>2016-09-07T10:09:20Z</time>
      </trkpt>
      <trkpt lat="44.71544" lon="6.22436">
        <ele>1620.9899214786</ele>
        <time>2016-09-07T10:09:29Z</time>
      </trkpt>
      <trkpt lat="44.71552" lon="6.2244">
        <ele>1625.3702652681</ele>
        <time>2016-09-07T10:09:41Z</time>
      </trkpt>
      <trkpt lat="44.71561" lon="6.22443">
        <ele>1622.5307999144</ele>
        <time>2016-09-07T10:09:52Z</time>
      </trkpt>
      <trkpt lat="44.71563" lon="6.22431">
        <ele>1625.8603532141</ele>
        <time>2016-09-07T10:10:15Z</time>
      </trkpt>
      <trkpt lat="44.71568" lon="6.22421">
        <ele>1631.4996550899</ele>
        <time>2016-09-07T10:10:30Z</time>
      </trkpt>
      <trkpt lat="44.71569" lon="6.2241">
        <ele>1632.7189369155</ele>
        <time>2016-09-07T10:10:48Z</time>
      </trkpt>
      <trkpt lat="44.71576" lon="6.22406">
        <ele>1632.294061761</ele>
        <time>2016-09-07T10:11:22Z</time>
      </trkpt>
      <trkpt lat="44.71584" lon="6.22408">
        <ele>1637.3975734071</ele>
        <time>2016-09-07T10:11:32Z</time>
      </trkpt>
      <trkpt lat="44.71592" lon="6.22412">
        <ele>1634.4470352506</ele>
        <time>2016-09-07T10:11:41Z</time>
      </trkpt>
      <trkpt lat="44.716" lon="6.22408">
        <ele>1641.573998891</ele>
        <time>2016-09-07T10:13:46Z</time>
      </trkpt>
      <trkpt lat="44.71604" lon="6.22397">
        <ele>1640.2629024005</ele>
        <time>2016-09-07T10:13:56Z</time>
      </trkpt>
      <trkpt lat="44.71609" lon="6.22388">
        <ele>1643.2188422384</ele>
        <time>2016-09-07T10:14:20Z</time>
      </trkpt>
      <trkpt lat="44.71608" lon="6.22376">
        <ele>1642.9805504395</ele>
        <time>2016-09-07T10:14:30Z</time>
      </trkpt>
      <trkpt lat="44.71611" lon="6.22366">
        <ele>1643.3176125513</ele>
        <time>2016-09-07T10:14:44Z</time>
      </trkpt>
      <trkpt lat="44.71612" lon="6.22353">
        <ele>1644.4750662914</ele>
        <time>2016-09-07T10:15:02Z</time>
      </trkpt>
      <trkpt lat="44.7162" lon="6.22349">
        <ele>1651.9657905739</ele>
        <time>2016-09-07T10:15:32Z</time>
      </trkpt>
      <trkpt lat="44.71628" lon="6.22351">
        <ele>1654.4283652604</ele>
        <time>2016-09-07T10:15:48Z</time>
      </trkpt>
      <trkpt lat="44.71637" lon="6.22348">
        <ele>1657.3943173193</ele>
        <time>2016-09-07T10:16:05Z</time>
      </trkpt>
      <trkpt lat="44.71642" lon="6.22339">
        <ele>1653.5634088093</ele>
        <time>2016-09-07T10:16:19Z</time>
      </trkpt>
      <trkpt lat="44.71647" lon="6.22331">
        <ele>1653.8959758436</ele>
        <time>2016-09-07T10:16:29Z</time>
      </trkpt>
      <trkpt lat="44.71651" lon="6.2232">
        <ele>1652.6196886413</ele>
        <time>2016-09-07T10:16:38Z</time>
      </trkpt>
      <trkpt lat="44.71656" lon="6.2231">
        <ele>1652.7425396137</ele>
        <time>2016-09-07T10:17:20Z</time>
      </trkpt>
      <trkpt lat="44.71657" lon="6.22297">
        <ele>1653.7094190343</ele>
        <time>2016-09-07T10:17:44Z</time>
      </trkpt>
      <trkpt lat="44.71657" lon="6.22285">
        <ele>1666.1910678613</ele>
        <time>2016-09-07T10:19:23Z</time>
      </trkpt>
      <trkpt lat="44.71651" lon="6.22276">
        <ele>1664.3274874763</ele>
        <time>2016-09-07T10:19:34Z</time>
      </trkpt>
      <trkpt lat="44.71644" lon="6.22272">
        <ele>1666.6229582606</ele>
        <time>2016-09-07T10:19:45Z</time>
      </trkpt>
      <trkpt lat="44.71636" lon="6.22265">
        <ele>1667.7886559533</ele>
        <time>2016-09-07T10:19:55Z</time>
      </trkpt>
      <trkpt lat="44.71636" lon="6.22253">
        <ele>1665.5309999115</ele>
        <time>2016-09-07T10:20:07Z</time>
      </trkpt>
      <trkpt lat="44.71641" lon="6.22243">
        <ele>1670.1321665639</ele>
        <time>2016-09-07T10:20:21Z</time>
      </trkpt>
      <trkpt lat="44.71646" lon="6.22234">
        <ele>1672.5988895061</ele>
        <time>2016-09-07T10:20:33Z</time>
      </trkpt>
      <trkpt lat="44.71652" lon="6.22224">
        <ele>1678.9681237265</ele>
        <time>2016-09-07T10:20:54Z</time>
      </trkpt>
      <trkpt lat="44.71659" lon="6.22216">
        <ele>1681.2651802114</ele>
        <time>2016-09-07T10:21:14Z</time>
      </trkpt>
      <trkpt lat="44.71667" lon="6.22214">
        <ele>1686.8222761</ele>
        <time>2016-09-07T10:21:27Z</time>
      </trkpt>
      <trkpt lat="44.71675" lon="6.22211">
        <ele>1688.6061508391</ele>
        <time>2016-09-07T10:21:45Z</time>
      </trkpt>
      <trkpt lat="44.71684" lon="6.22211">
        <ele>1694.1492990055</ele>
        <time>2016-09-07T10:22:10Z</time>
      </trkpt>
      <trkpt lat="44.71692" lon="6.22215">
        <ele>1688.7128589472</ele>
        <time>2016-09-07T10:23:07Z</time>
      </trkpt>
      <trkpt lat="44.71697" lon="6.22225">
        <ele>1694.2129421835</ele>
        <time>2016-09-07T10:26:34Z</time>
      </trkpt>
      <trkpt lat="44.71701" lon="6.22222">
        <ele>1695.673016423</ele>
        <time>2016-09-07T10:35:32Z</time>
      </trkpt>
      <trkpt lat="44.71709" lon="6.22226">
        <ele>1694.1614319172</ele>
        <time>2016-09-07T10:36:29Z</time>
      </trkpt>
      <trkpt lat="44.71702" lon="6.2223">
        <ele>1696.2332852473</ele>
        <time>2016-09-07T10:43:03Z</time>
      </trkpt>
      <trkpt lat="44.71699" lon="6.22221">
        <ele>1687.8780402223</ele>
        <time>2016-09-07T10:54:29Z</time>
      </trkpt>
      <trkpt lat="44.71696" lon="6.22232">
        <ele>1687.3357124035</ele>
        <time>2016-09-07T12:00:29Z</time>
      </trkpt>
      <trkpt lat="44.71698" lon="6.2222">
        <ele>1693.9928365427</ele>
        <time>2016-09-07T12:05:30Z</time>
      </trkpt>
      <trkpt lat="44.7169" lon="6.22222">
        <ele>1707.7802694261</ele>
        <time>2016-09-07T12:06:44Z</time>
      </trkpt>
      <trkpt lat="44.71683" lon="6.22215">
        <ele>1700.4860844012</ele>
        <time>2016-09-07T12:08:37Z</time>
      </trkpt>
      <trkpt lat="44.7168" lon="6.22203">
        <ele>1688.0004908836</ele>
        <time>2016-09-07T12:08:53Z</time>
      </trkpt>
      <trkpt lat="44.71674" lon="6.22209">
        <ele>1686.0485315612</ele>
        <time>2016-09-07T12:09:17Z</time>
      </trkpt>
      <trkpt lat="44.71665" lon="6.2221">
        <ele>1688.9144127164</ele>
        <time>2016-09-07T12:09:32Z</time>
      </trkpt>
      <trkpt lat="44.71658" lon="6.22217">
        <ele>1688.7997957002</ele>
        <time>2016-09-07T12:09:46Z</time>
      </trkpt>
      <trkpt lat="44.71651" lon="6.2222">
        <ele>1691.0977222359</ele>
        <time>2016-09-07T12:09:59Z</time>
      </trkpt>
      <trkpt lat="44.71644" lon="6.22228">
        <ele>1686.6032238616</ele>
        <time>2016-09-07T12:10:10Z</time>
      </trkpt>
      <trkpt lat="44.71639" lon="6.22238">
        <ele>1697.37520888</ele>
        <time>2016-09-07T12:10:24Z</time>
      </trkpt>
      <trkpt lat="44.71633" lon="6.22246">
        <ele>1692.6467368779</ele>
        <time>2016-09-07T12:10:38Z</time>
      </trkpt>
      <trkpt lat="44.71631" lon="6.22258">
        <ele>1684.7348053903</ele>
        <time>2016-09-07T12:10:46Z</time>
      </trkpt>
      <trkpt lat="44.71633" lon="6.22269">
        <ele>1679.3544154741</ele>
        <time>2016-09-07T12:10:55Z</time>
      </trkpt>
      <trkpt lat="44.71637" lon="6.22279">
        <ele>1671.0215283693</ele>
        <time>2016-09-07T12:11:08Z</time>
      </trkpt>
      <trkpt lat="44.71645" lon="6.22286">
        <ele>1666.7526944058</ele>
        <time>2016-09-07T12:11:19Z</time>
      </trkpt>
      <trkpt lat="44.71654" lon="6.2229">
        <ele>1669.2292909445</ele>
        <time>2016-09-07T12:11:49Z</time>
      </trkpt>
      <trkpt lat="44.71652" lon="6.22302">
        <ele>1660.4791714199</ele>
        <time>2016-09-07T12:13:02Z</time>
      </trkpt>
      <trkpt lat="44.71651" lon="6.22314">
        <ele>1666.159557095</ele>
        <time>2016-09-07T12:14:21Z</time>
      </trkpt>
      <trkpt lat="44.71647" lon="6.22325">
        <ele>1662.2717035241</ele>
        <time>2016-09-07T12:14:28Z</time>
      </trkpt>
      <trkpt lat="44.71641" lon="6.22333">
        <ele>1658.0690107522</ele>
        <time>2016-09-07T12:14:33Z</time>
      </trkpt>
      <trkpt lat="44.71636" lon="6.22343">
        <ele>1662.1759232217</ele>
        <time>2016-09-07T12:14:42Z</time>
      </trkpt>
      <trkpt lat="44.71628" lon="6.22349">
        <ele>1661.8230163877</ele>
        <time>2016-09-07T12:15:01Z</time>
      </trkpt>
      <trkpt lat="44.71621" lon="6.22345">
        <ele>1661.1173003518</ele>
        <time>2016-09-07T12:15:15Z</time>
      </trkpt>
      <trkpt lat="44.71613" lon="6.22347">
        <ele>1655.842864084</ele>
        <time>2016-09-07T12:15:22Z</time>
      </trkpt>
      <trkpt lat="44.71608" lon="6.22358">
        <ele>1660.0158062013</ele>
        <time>2016-09-07T12:15:37Z</time>
      </trkpt>
      <trkpt lat="44.71605" lon="6.22368">
        <ele>1656.5214708161</ele>
        <time>2016-09-07T12:15:48Z</time>
      </trkpt>
      <trkpt lat="44.71608" lon="6.22379">
        <ele>1655.1328715855</ele>
        <time>2016-09-07T12:16:03Z</time>
      </trkpt>
      <trkpt lat="44.71604" lon="6.22389">
        <ele>1650.3381449139</ele>
        <time>2016-09-07T12:16:33Z</time>
      </trkpt>
      <trkpt lat="44.71601" lon="6.22401">
        <ele>1651.9539400394</ele>
        <time>2016-09-07T12:16:53Z</time>
      </trkpt>
      <trkpt lat="44.71594" lon="6.22409">
        <ele>1648.8235538224</ele>
        <time>2016-09-07T12:17:23Z</time>
      </trkpt>
      <trkpt lat="44.71587" lon="6.22402">
        <ele>1641.5121240093</ele>
        <time>2016-09-07T12:17:33Z</time>
      </trkpt>
      <trkpt lat="44.7158" lon="6.22402">
        <ele>1639.3226361574</ele>
        <time>2016-09-07T12:17:47Z</time>
      </trkpt>
      <trkpt lat="44.71572" lon="6.22399">
        <ele>1637.89561578</ele>
        <time>2016-09-07T12:18:17Z</time>
      </trkpt>
      <trkpt lat="44.71565" lon="6.22407">
        <ele>1638.5785354173</ele>
        <time>2016-09-07T12:18:38Z</time>
      </trkpt>
      <trkpt lat="44.71562" lon="6.22418">
        <ele>1640.032954494</ele>
        <time>2016-09-07T12:18:53Z</time>
      </trkpt>
      <trkpt lat="44.71561" lon="6.2243">
        <ele>1639.7667062388</ele>
        <time>2016-09-07T12:19:10Z</time>
      </trkpt>
      <trkpt lat="44.71558" lon="6.22442">
        <ele>1635.0825969064</ele>
        <time>2016-09-07T12:19:35Z</time>
      </trkpt>
      <trkpt lat="44.71551" lon="6.22437">
        <ele>1633.5064984692</ele>
        <time>2016-09-07T12:20:08Z</time>
      </trkpt>
      <trkpt lat="44.71543" lon="6.22432">
        <ele>1634.9787427638</ele>
        <time>2016-09-07T12:20:23Z</time>
      </trkpt>
      <trkpt lat="44.71534" lon="6.22434">
        <ele>1635.2790917544</ele>
        <time>2016-09-07T12:20:33Z</time>
      </trkpt>
      <trkpt lat="44.71525" lon="6.22434">
        <ele>1633.2245294168</ele>
        <time>2016-09-07T12:20:59Z</time>
      </trkpt>
      <trkpt lat="44.71518" lon="6.22441">
        <ele>1630.6712267279</ele>
        <time>2016-09-07T12:21:13Z</time>
      </trkpt>
      <trkpt lat="44.71518" lon="6.22454">
        <ele>1625.9259504167</ele>
        <time>2016-09-07T12:21:29Z</time>
      </trkpt>
      <trkpt lat="44.71525" lon="6.22462">
        <ele>1614.5661256862</ele>
        <time>2016-09-07T12:21:40Z</time>
      </trkpt>
      <trkpt lat="44.71524" lon="6.22474">
        <ele>1619.8974808241</ele>
        <time>2016-09-07T12:22:05Z</time>
      </trkpt>
      <trkpt lat="44.7152" lon="6.22485">
        <ele>1619.6652225307</ele>
        <time>2016-09-07T12:22:14Z</time>
      </trkpt>
      <trkpt lat="44.71518" lon="6.22497">
        <ele>1612.9260750058</ele>
        <time>2016-09-07T12:22:33Z</time>
      </trkpt>
      <trkpt lat="44.71519" lon="6.22509">
        <ele>1610.5719583687</ele>
        <time>2016-09-07T12:23:03Z</time>
      </trkpt>
      <trkpt lat="44.71521" lon="6.2252">
        <ele>1606.9191551332</ele>
        <time>2016-09-07T12:23:10Z</time>
      </trkpt>
      <trkpt lat="44.71526" lon="6.22528">
        <ele>1604.9902817049</ele>
        <time>2016-09-07T12:23:17Z</time>
      </trkpt>
      <trkpt lat="44.71528" lon="6.2254">
        <ele>1598.3338489032</ele>
        <time>2016-09-07T12:23:27Z</time>
      </trkpt>
      <trkpt lat="44.71531" lon="6.22551">
        <ele>1594.1457548363</ele>
        <time>2016-09-07T12:23:42Z</time>
      </trkpt>
      <trkpt lat="44.71534" lon="6.22562">
        <ele>1594.2225942314</ele>
        <time>2016-09-07T12:23:52Z</time>
      </trkpt>
      <trkpt lat="44.71532" lon="6.22574">
        <ele>1599.6546500288</ele>
        <time>2016-09-07T12:24:28Z</time>
      </trkpt>
      <trkpt lat="44.71537" lon="6.22583">
        <ele>1586.5299658303</ele>
        <time>2016-09-07T12:24:36Z</time>
      </trkpt>
      <trkpt lat="44.71542" lon="6.22592">
        <ele>1588.4409452057</ele>
        <time>2016-09-07T12:24:58Z</time>
      </trkpt>
      <trkpt lat="44.71547" lon="6.22602">
        <ele>1591.1766702742</ele>
        <time>2016-09-07T12:25:19Z</time>
      </trkpt>
      <trkpt lat="44.71554" lon="6.22608">
        <ele>1591.8517691586</ele>
        <time>2016-09-07T12:25:26Z</time>
      </trkpt>
      <trkpt lat="44.71562" lon="6.22615">
        <ele>1583.5907779701</ele>
        <time>2016-09-07T12:25:35Z</time>
      </trkpt>
      <trkpt lat="44.71566" lon="6.22625">
        <ele>1577.9854353995</ele>
        <time>2016-09-07T12:25:46Z</time>
      </trkpt>
      <trkpt lat="44.71574" lon="6.22631">
        <ele>1580.8612536276</ele>
        <time>2016-09-07T12:25:59Z</time>
      </trkpt>
      <trkpt lat="44.71582" lon="6.22635">
        <ele>1582.2092534019</ele>
        <time>2016-09-07T12:26:19Z</time>
      </trkpt>
      <trkpt lat="44.71589" lon="6.22642">
        <ele>1583.2458355335</ele>
        <time>2016-09-07T12:26:26Z</time>
      </trkpt>
      <trkpt lat="44.71591" lon="6.22653">
        <ele>1587.0222788497</ele>
        <time>2016-09-07T12:26:41Z</time>
      </trkpt>
      <trkpt lat="44.71593" lon="6.22663">
        <ele>1582.4965130777</ele>
        <time>2016-09-07T12:26:50Z</time>
      </trkpt>
      <trkpt lat="44.71595" lon="6.22673">
        <ele>1580.4320762381</ele>
        <time>2016-09-07T12:26:57Z</time>
      </trkpt>
      <trkpt lat="44.716" lon="6.22683">
        <ele>1576.9438105331</ele>
        <time>2016-09-07T12:27:04Z</time>
      </trkpt>
      <trkpt lat="44.71605" lon="6.22692">
        <ele>1577.9770919032</ele>
        <time>2016-09-07T12:27:13Z</time>
      </trkpt>
      <trkpt lat="44.71611" lon="6.227">
        <ele>1578.1445280203</ele>
        <time>2016-09-07T12:27:22Z</time>
      </trkpt>
      <trkpt lat="44.71616" lon="6.2271">
        <ele>1581.2030412555</ele>
        <time>2016-09-07T12:27:48Z</time>
      </trkpt>
      <trkpt lat="44.71618" lon="6.22722">
        <ele>1579.4014716436</ele>
        <time>2016-09-07T12:28:16Z</time>
      </trkpt>
      <trkpt lat="44.71614" lon="6.22732">
        <ele>1579.1285158009</ele>
        <time>2016-09-07T12:28:30Z</time>
      </trkpt>
      <trkpt lat="44.71617" lon="6.22744">
        <ele>1579.5718982782</ele>
        <time>2016-09-07T12:28:37Z</time>
      </trkpt>
      <trkpt lat="44.71617" lon="6.22756">
        <ele>1577.1933261155</ele>
        <time>2016-09-07T12:29:09Z</time>
      </trkpt>
      <trkpt lat="44.71616" lon="6.22768">
        <ele>1569.4730737671</ele>
        <time>2016-09-07T12:29:19Z</time>
      </trkpt>
      <trkpt lat="44.71615" lon="6.2278">
        <ele>1569.1145153876</ele>
        <time>2016-09-07T12:29:35Z</time>
      </trkpt>
      <trkpt lat="44.71615" lon="6.22793">
        <ele>1561.9877106892</ele>
        <time>2016-09-07T12:29:50Z</time>
      </trkpt>
      <trkpt lat="44.71616" lon="6.22804">
        <ele>1557.0012454981</ele>
        <time>2016-09-07T12:30:02Z</time>
      </trkpt>
      <trkpt lat="44.71622" lon="6.22812">
        <ele>1551.0051154632</ele>
        <time>2016-09-07T12:30:15Z</time>
      </trkpt>
      <trkpt lat="44.71623" lon="6.22824">
        <ele>1548.4211860901</ele>
        <time>2016-09-07T12:30:28Z</time>
      </trkpt>
      <trkpt lat="44.71625" lon="6.22836">
        <ele>1534.8289825437</ele>
        <time>2016-09-07T12:30:49Z</time>
      </trkpt>
      <trkpt lat="44.71628" lon="6.22846">
        <ele>1527.9708861369</ele>
        <time>2016-09-07T12:31:04Z</time>
      </trkpt>
      <trkpt lat="44.71632" lon="6.22858">
        <ele>1524.5663445471</ele>
        <time>2016-09-07T12:31:10Z</time>
      </trkpt>
      <trkpt lat="44.71631" lon="6.22869">
        <ele>1517.1384895999</ele>
        <time>2016-09-07T12:31:20Z</time>
      </trkpt>
      <trkpt lat="44.71628" lon="6.2288">
        <ele>1525.1948017155</ele>
        <time>2016-09-07T12:31:28Z</time>
      </trkpt>
      <trkpt lat="44.71623" lon="6.22889">
        <ele>1534.8468177855</ele>
        <time>2016-09-07T12:31:32Z</time>
      </trkpt>
      <trkpt lat="44.71626" lon="6.229">
        <ele>1538.2916000072</ele>
        <time>2016-09-07T12:31:38Z</time>
      </trkpt>
      <trkpt lat="44.71626" lon="6.22911">
        <ele>1543.7208118766</ele>
        <time>2016-09-07T12:31:51Z</time>
      </trkpt>
      <trkpt lat="44.71628" lon="6.22922">
        <ele>1551.0580886891</ele>
        <time>2016-09-07T12:32:07Z</time>
      </trkpt>
      <trkpt lat="44.71627" lon="6.22934">
        <ele>1547.5510392625</ele>
        <time>2016-09-07T12:32:15Z</time>
      </trkpt>
      <trkpt lat="44.71626" lon="6.22947">
        <ele>1556.4000878519</ele>
        <time>2016-09-07T12:32:43Z</time>
      </trkpt>
      <trkpt lat="44.71627" lon="6.22959">
        <ele>1555.4919996991</ele>
        <time>2016-09-07T12:33:04Z</time>
      </trkpt>
      <trkpt lat="44.71625" lon="6.22971">
        <ele>1557.5820364047</ele>
        <time>2016-09-07T12:33:11Z</time>
      </trkpt>
      <trkpt lat="44.71622" lon="6.22983">
        <ele>1559.3261024441</ele>
        <time>2016-09-07T12:33:22Z</time>
      </trkpt>
      <trkpt lat="44.71625" lon="6.22994">
        <ele>1551.392424369</ele>
        <time>2016-09-07T12:33:33Z</time>
      </trkpt>
      <trkpt lat="44.71629" lon="6.23005">
        <ele>1550.1665200136</ele>
        <time>2016-09-07T12:34:02Z</time>
      </trkpt>
      <trkpt lat="44.71631" lon="6.23015">
        <ele>1549.2938833083</ele>
        <time>2016-09-07T12:34:08Z</time>
      </trkpt>
      <trkpt lat="44.71635" lon="6.23024">
        <ele>1542.6739066764</ele>
        <time>2016-09-07T12:34:14Z</time>
      </trkpt>
      <trkpt lat="44.71639" lon="6.23035">
        <ele>1542.0949927647</ele>
        <time>2016-09-07T12:34:19Z</time>
      </trkpt>
      <trkpt lat="44.71643" lon="6.23045">
        <ele>1539.7420644362</ele>
        <time>2016-09-07T12:34:24Z</time>
      </trkpt>
      <trkpt lat="44.7165" lon="6.23053">
        <ele>1533.7621579795</ele>
        <time>2016-09-07T12:34:30Z</time>
      </trkpt>
      <trkpt lat="44.71652" lon="6.23065">
        <ele>1532.655069587</ele>
        <time>2016-09-07T12:34:38Z</time>
      </trkpt>
      <trkpt lat="44.71654" lon="6.23076">
        <ele>1533.928549267</ele>
        <time>2016-09-07T12:34:46Z</time>
      </trkpt>
      <trkpt lat="44.71655" lon="6.23089">
        <ele>1544.1872283388</ele>
        <time>2016-09-07T12:34:56Z</time>
      </trkpt>
      <trkpt lat="44.71658" lon="6.23099">
        <ele>1540.4049308947</ele>
        <time>2016-09-07T12:35:01Z</time>
      </trkpt>
      <trkpt lat="44.71656" lon="6.23111">
        <ele>1545.3428707273</ele>
        <time>2016-09-07T12:35:15Z</time>
      </trkpt>
      <trkpt lat="44.71657" lon="6.23123">
        <ele>1539.2790546713</ele>
        <time>2016-09-07T12:35:28Z</time>
      </trkpt>
      <trkpt lat="44.71656" lon="6.23136">
        <ele>1544.0572787065</ele>
        <time>2016-09-07T12:35:43Z</time>
      </trkpt>
      <trkpt lat="44.71656" lon="6.23148">
        <ele>1535.0370965211</ele>
        <time>2016-09-07T12:35:49Z</time>
      </trkpt>
      <trkpt lat="44.71655" lon="6.2316">
        <ele>1537.7052068163</ele>
        <time>2016-09-07T12:36:02Z</time>
      </trkpt>
      <trkpt lat="44.71654" lon="6.23172">
        <ele>1527.865550159</ele>
        <time>2016-09-07T12:36:08Z</time>
      </trkpt>
      <trkpt lat="44.7166" lon="6.23179">
        <ele>1525.6795286996</ele>
        <time>2016-09-07T12:36:21Z</time>
      </trkpt>
      <trkpt lat="44.71663" lon="6.23191">
        <ele>1519.469399623</ele>
        <time>2016-09-07T12:36:43Z</time>
      </trkpt>
      <trkpt lat="44.71661" lon="6.23203">
        <ele>1523.8342266001</ele>
        <time>2016-09-07T12:37:20Z</time>
      </trkpt>
      <trkpt lat="44.7166" lon="6.23215">
        <ele>1521.907802538</ele>
        <time>2016-09-07T12:37:39Z</time>
      </trkpt>
      <trkpt lat="44.71661" lon="6.23225">
        <ele>1521.3491027896</ele>
        <time>2016-09-07T12:37:45Z</time>
      </trkpt>
      <trkpt lat="44.71667" lon="6.23233">
        <ele>1522.2878243907</ele>
        <time>2016-09-07T12:37:49Z</time>
      </trkpt>
      <trkpt lat="44.71666" lon="6.23246">
        <ele>1528.6989771829</ele>
        <time>2016-09-07T12:38:01Z</time>
      </trkpt>
      <trkpt lat="44.71671" lon="6.23255">
        <ele>1533.6886832697</ele>
        <time>2016-09-07T12:38:09Z</time>
      </trkpt>
      <trkpt lat="44.7167" lon="6.23267">
        <ele>1531.4660355362</ele>
        <time>2016-09-07T12:38:19Z</time>
      </trkpt>
      <trkpt lat="44.71672" lon="6.23278">
        <ele>1536.0683251619</ele>
        <time>2016-09-07T12:38:26Z</time>
      </trkpt>
      <trkpt lat="44.7167" lon="6.23289">
        <ele>1530.2551119317</ele>
        <time>2016-09-07T12:38:36Z</time>
      </trkpt>
      <trkpt lat="44.71662" lon="6.23292">
        <ele>1537.1635835634</ele>
        <time>2016-09-07T12:38:43Z</time>
      </trkpt>
      <trkpt lat="44.71655" lon="6.23294">
        <ele>1541.6476423154</ele>
        <time>2016-09-07T12:38:51Z</time>
      </trkpt>
      <trkpt lat="44.71647" lon="6.23299">
        <ele>1541.1981611906</ele>
        <time>2016-09-07T12:38:56Z</time>
      </trkpt>
      <trkpt lat="44.71645" lon="6.23311">
        <ele>1533.7139664905</ele>
        <time>2016-09-07T12:39:04Z</time>
      </trkpt>
      <trkpt lat="44.71644" lon="6.23323">
        <ele>1528.6930244929</ele>
        <time>2016-09-07T12:39:10Z</time>
      </trkpt>
      <trkpt lat="44.71645" lon="6.23335">
        <ele>1522.6919754449</ele>
        <time>2016-09-07T12:39:17Z</time>
      </trkpt>
      <trkpt lat="44.71644" lon="6.23348">
        <ele>1515.7764721223</ele>
        <time>2016-09-07T12:39:23Z</time>
      </trkpt>
      <trkpt lat="44.71646" lon="6.2336">
        <ele>1505.7988077219</ele>
        <time>2016-09-07T12:39:28Z</time>
      </trkpt>
      <trkpt lat="44.7165" lon="6.2337">
        <ele>1506.5845029743</ele>
        <time>2016-09-07T12:39:36Z</time>
      </trkpt>
      <trkpt lat="44.71655" lon="6.23379">
        <ele>1506.4333865211</ele>
        <time>2016-09-07T12:39:43Z</time>
      </trkpt>
      <trkpt lat="44.7166" lon="6.23387">
        <ele>1505.4017474501</ele>
        <time>2016-09-07T12:39:50Z</time>
      </trkpt>
      <trkpt lat="44.71665" lon="6.23398">
        <ele>1499.3654391418</ele>
        <time>2016-09-07T12:40:06Z</time>
      </trkpt>
      <trkpt lat="44.71671" lon="6.23404">
        <ele>1501.3082571938</ele>
        <time>2016-09-07T12:40:12Z</time>
      </trkpt>
      <trkpt lat="44.71678" lon="6.2341">
        <ele>1508.5753876306</ele>
        <time>2016-09-07T12:40:16Z</time>
      </trkpt>
      <trkpt lat="44.71685" lon="6.23417">
        <ele>1502.7608830698</ele>
        <time>2016-09-07T12:40:29Z</time>
      </trkpt>
      <trkpt lat="44.71693" lon="6.23421">
        <ele>1499.5376228048</ele>
        <time>2016-09-07T12:40:38Z</time>
      </trkpt>
      <trkpt lat="44.717" lon="6.23426">
        <ele>1499.5176904005</ele>
        <time>2016-09-07T12:40:50Z</time>
      </trkpt>
      <trkpt lat="44.71706" lon="6.23434">
        <ele>1494.2417175492</ele>
        <time>2016-09-07T12:41:00Z</time>
      </trkpt>
      <trkpt lat="44.71713" lon="6.23438">
        <ele>1495.7381772004</ele>
        <time>2016-09-07T12:41:11Z</time>
      </trkpt>
      <trkpt lat="44.71717" lon="6.23447">
        <ele>1487.9696729452</ele>
        <time>2016-09-07T12:41:19Z</time>
      </trkpt>
      <trkpt lat="44.71724" lon="6.23453">
        <ele>1492.0348977785</ele>
        <time>2016-09-07T12:41:24Z</time>
      </trkpt>
      <trkpt lat="44.71728" lon="6.23461">
        <ele>1490.1790857301</ele>
        <time>2016-09-07T12:41:33Z</time>
      </trkpt>
      <trkpt lat="44.71734" lon="6.2347">
        <ele>1496.2216435181</ele>
        <time>2016-09-07T12:41:38Z</time>
      </trkpt>
      <trkpt lat="44.71741" lon="6.23483">
        <ele>1512.0787231813</ele>
        <time>2016-09-07T12:41:42Z</time>
      </trkpt>
      <trkpt lat="44.71741" lon="6.23495">
        <ele>1497.3179532139</ele>
        <time>2016-09-07T12:41:55Z</time>
      </trkpt>
      <trkpt lat="44.71747" lon="6.23502">
        <ele>1492.7686816912</ele>
        <time>2016-09-07T12:42:04Z</time>
      </trkpt>
      <trkpt lat="44.71757" lon="6.23509">
        <ele>1499.9267038757</ele>
        <time>2016-09-07T12:42:09Z</time>
      </trkpt>
      <trkpt lat="44.71766" lon="6.23508">
        <ele>1503.5922601929</ele>
        <time>2016-09-07T12:42:14Z</time>
      </trkpt>
      <trkpt lat="44.71773" lon="6.23517">
        <ele>1508.289470837</ele>
        <time>2016-09-07T12:42:19Z</time>
      </trkpt>
      <trkpt lat="44.71773" lon="6.23528">
        <ele>1497.5158013188</ele>
        <time>2016-09-07T12:42:31Z</time>
      </trkpt>
      <trkpt lat="44.71775" lon="6.23541">
        <ele>1492.4134091392</ele>
        <time>2016-09-07T12:42:48Z</time>
      </trkpt>
      <trkpt lat="44.7178" lon="6.23549">
        <ele>1474.9907109153</ele>
        <time>2016-09-07T12:43:09Z</time>
      </trkpt>
      <trkpt lat="44.71786" lon="6.23558">
        <ele>1480.0602108917</ele>
        <time>2016-09-07T12:43:16Z</time>
      </trkpt>
      <trkpt lat="44.71787" lon="6.23569">
        <ele>1477.2619595813</ele>
        <time>2016-09-07T12:43:28Z</time>
      </trkpt>
      <trkpt lat="44.71792" lon="6.23579">
        <ele>1479.3557283787</ele>
        <time>2016-09-07T12:43:34Z</time>
      </trkpt>
      <trkpt lat="44.71798" lon="6.23588">
        <ele>1488.8084482774</ele>
        <time>2016-09-07T12:43:39Z</time>
      </trkpt>
      <trkpt lat="44.71797" lon="6.236">
        <ele>1491.7189986093</ele>
        <time>2016-09-07T12:43:45Z</time>
      </trkpt>
      <trkpt lat="44.71791" lon="6.23602">
        <ele>1477.6219784338</ele>
        <time>2016-09-07T12:43:54Z</time>
      </trkpt>
      <trkpt lat="44.7179" lon="6.23613">
        <ele>1474.2360074668</ele>
        <time>2016-09-07T12:44:07Z</time>
      </trkpt>
      <trkpt lat="44.71796" lon="6.23622">
        <ele>1475.9421671224</ele>
        <time>2016-09-07T12:44:11Z</time>
      </trkpt>
      <trkpt lat="44.71804" lon="6.23634">
        <ele>1481.0920166501</ele>
        <time>2016-09-07T12:44:15Z</time>
      </trkpt>
      <trkpt lat="44.7181" lon="6.23638">
        <ele>1476.4392739775</ele>
        <time>2016-09-07T12:44:20Z</time>
      </trkpt>
      <trkpt lat="44.71814" lon="6.23647">
        <ele>1474.2165529499</ele>
        <time>2016-09-07T12:44:30Z</time>
      </trkpt>
      <trkpt lat="44.71817" lon="6.23657">
        <ele>1476.7200327105</ele>
        <time>2016-09-07T12:44:36Z</time>
      </trkpt>
      <trkpt lat="44.71824" lon="6.23664">
        <ele>1477.8608310999</ele>
        <time>2016-09-07T12:44:42Z</time>
      </trkpt>
      <trkpt lat="44.71825" lon="6.23675">
        <ele>1483.6374069698</ele>
        <time>2016-09-07T12:44:48Z</time>
      </trkpt>
      <trkpt lat="44.71829" lon="6.23688">
        <ele>1488.378242614</ele>
        <time>2016-09-07T12:44:53Z</time>
      </trkpt>
      <trkpt lat="44.71835" lon="6.23698">
        <ele>1482.7330003618</ele>
        <time>2016-09-07T12:45:02Z</time>
      </trkpt>
      <trkpt lat="44.71841" lon="6.23707">
        <ele>1491.5684186121</ele>
        <time>2016-09-07T12:45:07Z</time>
      </trkpt>
      <trkpt lat="44.71847" lon="6.23714">
        <ele>1486.5247096363</ele>
        <time>2016-09-07T12:45:30Z</time>
      </trkpt>
      <trkpt lat="44.71852" lon="6.23723">
        <ele>1489.8223873032</ele>
        <time>2016-09-07T12:45:35Z</time>
      </trkpt>
      <trkpt lat="44.7185" lon="6.23735">
        <ele>1470.6178573831</ele>
        <time>2016-09-07T12:46:06Z</time>
      </trkpt>
      <trkpt lat="44.71855" lon="6.2374">
        <ele>1472.2226180602</ele>
        <time>2016-09-07T12:46:11Z</time>
      </trkpt>
      <trkpt lat="44.71863" lon="6.23747">
        <ele>1470.1752578846</ele>
        <time>2016-09-07T12:46:16Z</time>
      </trkpt>
      <trkpt lat="44.71868" lon="6.23753">
        <ele>1475.2284722334</ele>
        <time>2016-09-07T12:46:20Z</time>
      </trkpt>
      <trkpt lat="44.71866" lon="6.23764">
        <ele>1463.6881669908</ele>
        <time>2016-09-07T12:46:34Z</time>
      </trkpt>
      <trkpt lat="44.7187" lon="6.23775">
        <ele>1465.8933978551</ele>
        <time>2016-09-07T12:46:40Z</time>
      </trkpt>
      <trkpt lat="44.71874" lon="6.23785">
        <ele>1463.8139868402</ele>
        <time>2016-09-07T12:46:48Z</time>
      </trkpt>
      <trkpt lat="44.71876" lon="6.23796">
        <ele>1460.4488435122</ele>
        <time>2016-09-07T12:46:59Z</time>
      </trkpt>
      <trkpt lat="44.71883" lon="6.23806">
        <ele>1462.9361861064</ele>
        <time>2016-09-07T12:47:04Z</time>
      </trkpt>
      <trkpt lat="44.71887" lon="6.23815">
        <ele>1468.997017279</ele>
        <time>2016-09-07T12:47:14Z</time>
      </trkpt>
      <trkpt lat="44.71886" lon="6.23824">
        <ele>1469.5396911981</ele>
        <time>2016-09-07T12:47:19Z</time>
      </trkpt>
      <trkpt lat="44.71895" lon="6.23834">
        <ele>1472.2810446762</ele>
        <time>2016-09-07T12:47:23Z</time>
      </trkpt>
      <trkpt lat="44.71902" lon="6.23841">
        <ele>1468.0269533061</ele>
        <time>2016-09-07T12:47:30Z</time>
      </trkpt>
      <trkpt lat="44.71908" lon="6.23848">
        <ele>1474.6466778199</ele>
        <time>2016-09-07T12:47:35Z</time>
      </trkpt>
      <trkpt lat="44.71916" lon="6.23855">
        <ele>1482.359646987</ele>
        <time>2016-09-07T12:47:39Z</time>
      </trkpt>
      <trkpt lat="44.71922" lon="6.23863">
        <ele>1486.2433116195</ele>
        <time>2016-09-07T12:47:48Z</time>
      </trkpt>
      <trkpt lat="44.71928" lon="6.23868">
        <ele>1486.0451297911</ele>
        <time>2016-09-07T12:47:54Z</time>
      </trkpt>
      <trkpt lat="44.71934" lon="6.23877">
        <ele>1485.4615713699</ele>
        <time>2016-09-07T12:48:10Z</time>
      </trkpt>
      <trkpt lat="44.71938" lon="6.23886">
        <ele>1490.6894811064</ele>
        <time>2016-09-07T12:48:19Z</time>
      </trkpt>
      <trkpt lat="44.71943" lon="6.23896">
        <ele>1486.1448855427</ele>
        <time>2016-09-07T12:48:34Z</time>
      </trkpt>
      <trkpt lat="44.71951" lon="6.239">
        <ele>1482.5745871235</ele>
        <time>2016-09-07T12:48:38Z</time>
      </trkpt>
      <trkpt lat="44.71957" lon="6.23908">
        <ele>1490.1295086262</ele>
        <time>2016-09-07T12:48:47Z</time>
      </trkpt>
      <trkpt lat="44.71961" lon="6.23917">
        <ele>1493.2220233998</ele>
        <time>2016-09-07T12:48:53Z</time>
      </trkpt>
      <trkpt lat="44.71969" lon="6.23924">
        <ele>1494.541268279</ele>
        <time>2016-09-07T12:48:57Z</time>
      </trkpt>
      <trkpt lat="44.71974" lon="6.23932">
        <ele>1486.9737087274</ele>
        <time>2016-09-07T12:49:06Z</time>
      </trkpt>
      <trkpt lat="44.7198" lon="6.23939">
        <ele>1490.3978856605</ele>
        <time>2016-09-07T12:49:12Z</time>
      </trkpt>
      <trkpt lat="44.71987" lon="6.23945">
        <ele>1482.8415224857</ele>
        <time>2016-09-07T12:49:21Z</time>
      </trkpt>
      <trkpt lat="44.7199" lon="6.23956">
        <ele>1481.5541334849</ele>
        <time>2016-09-07T12:49:31Z</time>
      </trkpt>
      <trkpt lat="44.71999" lon="6.2396">
        <ele>1488.297613974</ele>
        <time>2016-09-07T12:49:35Z</time>
      </trkpt>
      <trkpt lat="44.72005" lon="6.23966">
        <ele>1492.9754019335</ele>
        <time>2016-09-07T12:49:43Z</time>
      </trkpt>
      <trkpt lat="44.72012" lon="6.23974">
        <ele>1490.0540869653</ele>
        <time>2016-09-07T12:49:52Z</time>
      </trkpt>
      <trkpt lat="44.72019" lon="6.23977">
        <ele>1482.3964236309</ele>
        <time>2016-09-07T12:49:59Z</time>
      </trkpt>
      <trkpt lat="44.72026" lon="6.23983">
        <ele>1482.17348095</ele>
        <time>2016-09-07T12:50:06Z</time>
      </trkpt>
      <trkpt lat="44.72027" lon="6.23995">
        <ele>1475.6321973955</ele>
        <time>2016-09-07T12:50:27Z</time>
      </trkpt>
      <trkpt lat="44.72035" lon="6.24001">
        <ele>1480.2359608414</ele>
        <time>2016-09-07T12:50:32Z</time>
      </trkpt>
      <trkpt lat="44.72042" lon="6.24009">
        <ele>1489.5552631527</ele>
        <time>2016-09-07T12:50:36Z</time>
      </trkpt>
      <trkpt lat="44.72049" lon="6.24015">
        <ele>1488.3862777909</ele>
        <time>2016-09-07T12:50:48Z</time>
      </trkpt>
      <trkpt lat="44.72057" lon="6.24017">
        <ele>1479.0823445917</ele>
        <time>2016-09-07T12:51:00Z</time>
      </trkpt>
      <trkpt lat="44.72066" lon="6.24016">
        <ele>1485.3346405712</ele>
        <time>2016-09-07T12:51:16Z</time>
      </trkpt>
      <trkpt lat="44.72073" lon="6.24019">
        <ele>1467.0686949631</ele>
        <time>2016-09-07T12:51:41Z</time>
      </trkpt>
      <trkpt lat="44.72079" lon="6.24026">
        <ele>1470.6105626252</ele>
        <time>2016-09-07T12:51:48Z</time>
      </trkpt>
      <trkpt lat="44.7208" lon="6.24037">
        <ele>1462.1508086897</ele>
        <time>2016-09-07T12:52:03Z</time>
      </trkpt>
      <trkpt lat="44.72083" lon="6.24047">
        <ele>1462.014978149</ele>
        <time>2016-09-07T12:52:08Z</time>
      </trkpt>
      <trkpt lat="44.72088" lon="6.24056">
        <ele>1468.483899129</ele>
        <time>2016-09-07T12:52:13Z</time>
      </trkpt>
      <trkpt lat="44.72094" lon="6.24063">
        <ele>1454.5110121946</ele>
        <time>2016-09-07T12:52:22Z</time>
      </trkpt>
      <trkpt lat="44.72101" lon="6.24072">
        <ele>1458.2685892101</ele>
        <time>2016-09-07T12:52:27Z</time>
      </trkpt>
      <trkpt lat="44.7211" lon="6.2408">
        <ele>1472.1425051607</ele>
        <time>2016-09-07T12:52:31Z</time>
      </trkpt>
      <trkpt lat="44.72113" lon="6.24091">
        <ele>1460.4537964545</ele>
        <time>2016-09-07T12:53:08Z</time>
      </trkpt>
      <trkpt lat="44.72119" lon="6.241">
        <ele>1459.3623075601</ele>
        <time>2016-09-07T12:53:18Z</time>
      </trkpt>
      <trkpt lat="44.72123" lon="6.24111">
        <ele>1461.4473907732</ele>
        <time>2016-09-07T12:53:25Z</time>
      </trkpt>
      <trkpt lat="44.72124" lon="6.24122">
        <ele>1461.0366869824</ele>
        <time>2016-09-07T12:53:33Z</time>
      </trkpt>
      <trkpt lat="44.72131" lon="6.24129">
        <ele>1461.950808145</ele>
        <time>2016-09-07T12:53:40Z</time>
      </trkpt>
      <trkpt lat="44.72138" lon="6.24135">
        <ele>1463.3440879171</ele>
        <time>2016-09-07T12:53:46Z</time>
      </trkpt>
      <trkpt lat="44.72143" lon="6.24143">
        <ele>1462.6303106067</ele>
        <time>2016-09-07T12:53:54Z</time>
      </trkpt>
      <trkpt lat="44.7214" lon="6.24154">
        <ele>1455.8717017793</ele>
        <time>2016-09-07T12:54:19Z</time>
      </trkpt>
      <trkpt lat="44.72143" lon="6.24164">
        <ele>1446.1644733429</ele>
        <time>2016-09-07T12:54:38Z</time>
      </trkpt>
      <trkpt lat="44.7215" lon="6.24172">
        <ele>1443.3624987223</ele>
        <time>2016-09-07T12:54:44Z</time>
      </trkpt>
      <trkpt lat="44.72157" lon="6.24179">
        <ele>1440.3235094864</ele>
        <time>2016-09-07T12:54:50Z</time>
      </trkpt>
      <trkpt lat="44.72165" lon="6.24184">
        <ele>1442.7630504784</ele>
        <time>2016-09-07T12:54:55Z</time>
      </trkpt>
      <trkpt lat="44.72167" lon="6.24194">
        <ele>1444.0792747006</ele>
        <time>2016-09-07T12:55:02Z</time>
      </trkpt>
      <trkpt lat="44.72172" lon="6.24205">
        <ele>1444.6823322513</ele>
        <time>2016-09-07T12:55:13Z</time>
      </trkpt>
      <trkpt lat="44.72177" lon="6.24214">
        <ele>1454.87184447</ele>
        <time>2016-09-07T12:55:25Z</time>
      </trkpt>
      <trkpt lat="44.72183" lon="6.24222">
        <ele>1451.9894015579</ele>
        <time>2016-09-07T12:55:34Z</time>
      </trkpt>
      <trkpt lat="44.72188" lon="6.24231">
        <ele>1441.3173375377</ele>
        <time>2016-09-07T12:55:46Z</time>
      </trkpt>
      <trkpt lat="44.72195" lon="6.24239">
        <ele>1441.1464963651</ele>
        <time>2016-09-07T12:55:52Z</time>
      </trkpt>
      <trkpt lat="44.722" lon="6.24247">
        <ele>1444.0806135728</ele>
        <time>2016-09-07T12:56:00Z</time>
      </trkpt>
      <trkpt lat="44.72199" lon="6.24257">
        <ele>1432.7021227203</ele>
        <time>2016-09-07T12:56:14Z</time>
      </trkpt>
      <trkpt lat="44.72201" lon="6.24269">
        <ele>1435.1156813386</ele>
        <time>2016-09-07T12:56:22Z</time>
      </trkpt>
      <trkpt lat="44.72208" lon="6.24274">
        <ele>1429.358994334</ele>
        <time>2016-09-07T12:56:37Z</time>
      </trkpt>
      <trkpt lat="44.72215" lon="6.24279">
        <ele>1429.6454987059</ele>
        <time>2016-09-07T12:56:41Z</time>
      </trkpt>
      <trkpt lat="44.7222" lon="6.24287">
        <ele>1430.178594132</ele>
        <time>2016-09-07T12:56:54Z</time>
      </trkpt>
      <trkpt lat="44.72229" lon="6.24288">
        <ele>1428.6695634675</ele>
        <time>2016-09-07T12:57:01Z</time>
      </trkpt>
      <trkpt lat="44.72237" lon="6.24292">
        <ele>1432.705122807</ele>
        <time>2016-09-07T12:57:07Z</time>
      </trkpt>
      <trkpt lat="44.72244" lon="6.24299">
        <ele>1427.9191420066</ele>
        <time>2016-09-07T12:57:51Z</time>
      </trkpt>
      <trkpt lat="44.7225" lon="6.24309">
        <ele>1428.8631657673</ele>
        <time>2016-09-07T12:58:00Z</time>
      </trkpt>
      <trkpt lat="44.72249" lon="6.24321">
        <ele>1430.3607143845</ele>
        <time>2016-09-07T12:58:18Z</time>
      </trkpt>
      <trkpt lat="44.72241" lon="6.24322">
        <ele>1433.1669332819</ele>
        <time>2016-09-07T12:58:30Z</time>
      </trkpt>
      <trkpt lat="44.7223" lon="6.24327">
        <ele>1434.7968270019</ele>
        <time>2016-09-07T12:58:35Z</time>
      </trkpt>
      <trkpt lat="44.72226" lon="6.24337">
        <ele>1444.951717189</ele>
        <time>2016-09-07T12:58:47Z</time>
      </trkpt>
      <trkpt lat="44.72222" lon="6.24347">
        <ele>1443.880551717</ele>
        <time>2016-09-07T12:58:57Z</time>
      </trkpt>
      <trkpt lat="44.72211" lon="6.24347">
        <ele>1445.0814579927</ele>
        <time>2016-09-07T12:59:02Z</time>
      </trkpt>
      <trkpt lat="44.72209" lon="6.24358">
        <ele>1447.1253509437</ele>
        <time>2016-09-07T12:59:14Z</time>
      </trkpt>
      <trkpt lat="44.72209" lon="6.2437">
        <ele>1435.3354824456</ele>
        <time>2016-09-07T12:59:30Z</time>
      </trkpt>
      <trkpt lat="44.72209" lon="6.24382">
        <ele>1435.2411811012</ele>
        <time>2016-09-07T12:59:45Z</time>
      </trkpt>
      <trkpt lat="44.72212" lon="6.24392">
        <ele>1434.309178546</ele>
        <time>2016-09-07T12:59:50Z</time>
      </trkpt>
      <trkpt lat="44.72215" lon="6.24402">
        <ele>1425.0751452883</ele>
        <time>2016-09-07T13:00:06Z</time>
      </trkpt>
      <trkpt lat="44.72225" lon="6.24407">
        <ele>1423.1642739515</ele>
        <time>2016-09-07T13:00:10Z</time>
      </trkpt>
      <trkpt lat="44.72228" lon="6.24418">
        <ele>1419.1323914598</ele>
        <time>2016-09-07T13:00:22Z</time>
      </trkpt>
      <trkpt lat="44.72236" lon="6.24426">
        <ele>1412.3093478837</ele>
        <time>2016-09-07T13:00:27Z</time>
      </trkpt>
      <trkpt lat="44.72241" lon="6.24431">
        <ele>1412.6393430575</ele>
        <time>2016-09-07T13:00:31Z</time>
      </trkpt>
      <trkpt lat="44.7225" lon="6.24436">
        <ele>1410.2189153964</ele>
        <time>2016-09-07T13:00:36Z</time>
      </trkpt>
      <trkpt lat="44.72255" lon="6.24446">
        <ele>1412.7066242627</ele>
        <time>2016-09-07T13:01:04Z</time>
      </trkpt>
      <trkpt lat="44.72261" lon="6.24453">
        <ele>1416.1335406742</ele>
        <time>2016-09-07T13:01:09Z</time>
      </trkpt>
      <trkpt lat="44.7227" lon="6.24456">
        <ele>1415.2401356827</ele>
        <time>2016-09-07T13:01:16Z</time>
      </trkpt>
      <trkpt lat="44.72275" lon="6.24464">
        <ele>1416.3282207567</ele>
        <time>2016-09-07T13:01:33Z</time>
      </trkpt>
      <trkpt lat="44.72282" lon="6.24475">
        <ele>1416.5750162868</ele>
        <time>2016-09-07T13:01:38Z</time>
      </trkpt>
      <trkpt lat="44.72283" lon="6.24488">
        <ele>1426.5746769403</ele>
        <time>2016-09-07T13:01:45Z</time>
      </trkpt>
      <trkpt lat="44.72291" lon="6.24493">
        <ele>1422.5172287877</ele>
        <time>2016-09-07T13:01:50Z</time>
      </trkpt>
      <trkpt lat="44.72299" lon="6.24495">
        <ele>1421.3221988787</ele>
        <time>2016-09-07T13:01:55Z</time>
      </trkpt>
      <trkpt lat="44.72307" lon="6.24495">
        <ele>1417.6051855795</ele>
        <time>2016-09-07T13:02:00Z</time>
      </trkpt>
      <trkpt lat="44.72315" lon="6.24498">
        <ele>1417.3569382941</ele>
        <time>2016-09-07T13:02:08Z</time>
      </trkpt>
      <trkpt lat="44.72323" lon="6.24497">
        <ele>1420.2432680654</ele>
        <time>2016-09-07T13:02:23Z</time>
      </trkpt>
      <trkpt lat="44.7233" lon="6.24504">
        <ele>1426.3642995938</ele>
        <time>2016-09-07T13:02:36Z</time>
      </trkpt>
      <trkpt lat="44.72337" lon="6.24513">
        <ele>1425.5560165027</ele>
        <time>2016-09-07T13:02:46Z</time>
      </trkpt>
      <trkpt lat="44.72343" lon="6.24519">
        <ele>1427.1914439339</ele>
        <time>2016-09-07T13:02:53Z</time>
      </trkpt>
      <trkpt lat="44.72349" lon="6.24525">
        <ele>1419.8269049945</ele>
        <time>2016-09-07T13:03:02Z</time>
      </trkpt>
      <trkpt lat="44.72356" lon="6.2453">
        <ele>1420.0654490187</ele>
        <time>2016-09-07T13:03:13Z</time>
      </trkpt>
      <trkpt lat="44.72362" lon="6.24538">
        <ele>1421.1889388316</ele>
        <time>2016-09-07T13:03:21Z</time>
      </trkpt>
      <trkpt lat="44.72369" lon="6.24543">
        <ele>1417.8372111663</ele>
        <time>2016-09-07T13:03:25Z</time>
      </trkpt>
      <trkpt lat="44.72377" lon="6.24548">
        <ele>1415.2646123008</ele>
        <time>2016-09-07T13:03:34Z</time>
      </trkpt>
      <trkpt lat="44.72382" lon="6.24554">
        <ele>1415.8974159023</ele>
        <time>2016-09-07T13:03:39Z</time>
      </trkpt>
      <trkpt lat="44.7239" lon="6.24557">
        <ele>1416.92664646</ele>
        <time>2016-09-07T13:03:44Z</time>
      </trkpt>
      <trkpt lat="44.72399" lon="6.24555">
        <ele>1418.2271641763</ele>
        <time>2016-09-07T13:03:53Z</time>
      </trkpt>
      <trkpt lat="44.72404" lon="6.24547">
        <ele>1409.0845518849</ele>
        <time>2016-09-07T13:04:01Z</time>
      </trkpt>
      <trkpt lat="44.72412" lon="6.24541">
        <ele>1412.984693701</ele>
        <time>2016-09-07T13:04:11Z</time>
      </trkpt>
      <trkpt lat="44.72414" lon="6.24531">
        <ele>1409.9087726666</ele>
        <time>2016-09-07T13:04:18Z</time>
      </trkpt>
      <trkpt lat="44.72419" lon="6.24521">
        <ele>1410.1308937708</ele>
        <time>2016-09-07T13:04:26Z</time>
      </trkpt>
      <trkpt lat="44.72418" lon="6.24533">
        <ele>1409.3298887051</ele>
        <time>2016-09-07T13:05:06Z</time>
      </trkpt>
      <trkpt lat="44.72423" lon="6.24541">
        <ele>1413.3438561696</ele>
        <time>2016-09-07T13:05:11Z</time>
      </trkpt>
      <trkpt lat="44.72429" lon="6.24548">
        <ele>1418.5479222859</ele>
        <time>2016-09-07T13:05:15Z</time>
      </trkpt>
      <trkpt lat="44.72429" lon="6.24561">
        <ele>1418.1428031711</ele>
        <time>2016-09-07T13:05:23Z</time>
      </trkpt>
      <trkpt lat="44.72421" lon="6.24567">
        <ele>1418.0965846101</ele>
        <time>2016-09-07T13:05:34Z</time>
      </trkpt>
      <trkpt lat="44.7242" lon="6.24578">
        <ele>1416.1077707822</ele>
        <time>2016-09-07T13:05:41Z</time>
      </trkpt>
      <trkpt lat="44.72418" lon="6.24589">
        <ele>1408.8046543104</ele>
        <time>2016-09-07T13:05:52Z</time>
      </trkpt>
      <trkpt lat="44.72414" lon="6.246">
        <ele>1403.4669678217</ele>
        <time>2016-09-07T13:06:02Z</time>
      </trkpt>
      <trkpt lat="44.72414" lon="6.24611">
        <ele>1401.1261462217</ele>
        <time>2016-09-07T13:06:10Z</time>
      </trkpt>
      <trkpt lat="44.72412" lon="6.24623">
        <ele>1400.8465722687</ele>
        <time>2016-09-07T13:06:20Z</time>
      </trkpt>
      <trkpt lat="44.72414" lon="6.24635">
        <ele>1397.8053255928</ele>
        <time>2016-09-07T13:06:30Z</time>
      </trkpt>
      <trkpt lat="44.72417" lon="6.24646">
        <ele>1395.4596343023</ele>
        <time>2016-09-07T13:06:42Z</time>
      </trkpt>
      <trkpt lat="44.72416" lon="6.24658">
        <ele>1398.1874006419</ele>
        <time>2016-09-07T13:07:03Z</time>
      </trkpt>
      <trkpt lat="44.72414" lon="6.24669">
        <ele>1389.8041876236</ele>
        <time>2016-09-07T13:07:13Z</time>
      </trkpt>
      <trkpt lat="44.72416" lon="6.2468">
        <ele>1392.7157164809</ele>
        <time>2016-09-07T13:07:24Z</time>
      </trkpt>
      <trkpt lat="44.72419" lon="6.24692">
        <ele>1392.3499762293</ele>
        <time>2016-09-07T13:07:44Z</time>
      </trkpt>
      <trkpt lat="44.72425" lon="6.24697">
        <ele>1390.3318249201</ele>
        <time>2016-09-07T13:07:53Z</time>
      </trkpt>
      <trkpt lat="44.7243" lon="6.24707">
        <ele>1386.3990492189</ele>
        <time>2016-09-07T13:10:35Z</time>
      </trkpt>
      <trkpt lat="44.72434" lon="6.24717">
        <ele>1386.5181087416</ele>
        <time>2016-09-07T13:10:44Z</time>
      </trkpt>
      <trkpt lat="44.7244" lon="6.24725">
        <ele>1388.3013490146</ele>
        <time>2016-09-07T13:11:07Z</time>
      </trkpt>
      <trkpt lat="44.72446" lon="6.24733">
        <ele>1384.2713329836</ele>
        <time>2016-09-07T13:11:15Z</time>
      </trkpt>
      <trkpt lat="44.72453" lon="6.24738">
        <ele>1381.3215545064</ele>
        <time>2016-09-07T13:11:34Z</time>
      </trkpt>
      <trkpt lat="44.7246" lon="6.24742">
        <ele>1379.0714989576</ele>
        <time>2016-09-07T13:11:39Z</time>
      </trkpt>
      <trkpt lat="44.72466" lon="6.24749">
        <ele>1375.9193771517</ele>
        <time>2016-09-07T13:12:19Z</time>
      </trkpt>
      <trkpt lat="44.72465" lon="6.24762">
        <ele>1374.5652533725</ele>
        <time>2016-09-07T13:12:51Z</time>
      </trkpt>
      <trkpt lat="44.72466" lon="6.24774">
        <ele>1370.6347909304</ele>
        <time>2016-09-07T13:13:05Z</time>
      </trkpt>
      <trkpt lat="44.72463" lon="6.24786">
        <ele>1370.8746171558</ele>
        <time>2016-09-07T13:13:19Z</time>
      </trkpt>
      <trkpt lat="44.72459" lon="6.24796">
        <ele>1365.6097837851</ele>
        <time>2016-09-07T13:13:32Z</time>
      </trkpt>
      <trkpt lat="44.72453" lon="6.24805">
        <ele>1366.7354684405</ele>
        <time>2016-09-07T13:13:47Z</time>
      </trkpt>
      <trkpt lat="44.72445" lon="6.2481">
        <ele>1368.8698005561</ele>
        <time>2016-09-07T13:13:57Z</time>
      </trkpt>
      <trkpt lat="44.72441" lon="6.24821">
        <ele>1374.1253357714</ele>
        <time>2016-09-07T13:14:45Z</time>
      </trkpt>
      <trkpt lat="44.72447" lon="6.2483">
        <ele>1366.2760204765</ele>
        <time>2016-09-07T13:17:01Z</time>
      </trkpt>
      <trkpt lat="44.72454" lon="6.24833">
        <ele>1369.3327859625</ele>
        <time>2016-09-07T13:17:14Z</time>
      </trkpt>
      <trkpt lat="44.72463" lon="6.24832">
        <ele>1368.7928336405</ele>
        <time>2016-09-07T13:17:24Z</time>
      </trkpt>
      <trkpt lat="44.72471" lon="6.24835">
        <ele>1369.2831928693</ele>
        <time>2016-09-07T13:17:40Z</time>
      </trkpt>
      <trkpt lat="44.72471" lon="6.24848">
        <ele>1365.0181479864</ele>
        <time>2016-09-07T13:18:07Z</time>
      </trkpt>
      <trkpt lat="44.72463" lon="6.24855">
        <ele>1367.2971596578</ele>
        <time>2016-09-07T13:18:19Z</time>
      </trkpt>
      <trkpt lat="44.72456" lon="6.24859">
        <ele>1365.2135919235</ele>
        <time>2016-09-07T13:18:29Z</time>
      </trkpt>
      <trkpt lat="44.72448" lon="6.2486">
        <ele>1366.4930515291</ele>
        <time>2016-09-07T13:18:38Z</time>
      </trkpt>
      <trkpt lat="44.72439" lon="6.24861">
        <ele>1367.303356087</ele>
        <time>2016-09-07T13:18:47Z</time>
      </trkpt>
      <trkpt lat="44.72431" lon="6.24864">
        <ele>1363.2701024782</ele>
        <time>2016-09-07T13:19:03Z</time>
      </trkpt>
      <trkpt lat="44.72423" lon="6.24863">
        <ele>1363.0197302331</ele>
        <time>2016-09-07T13:19:15Z</time>
      </trkpt>
      <trkpt lat="44.72414" lon="6.24864">
        <ele>1360.5009295881</ele>
        <time>2016-09-07T13:19:22Z</time>
      </trkpt>
      <trkpt lat="44.72406" lon="6.24865">
        <ele>1359.4233592198</ele>
        <time>2016-09-07T13:19:30Z</time>
      </trkpt>
      <trkpt lat="44.72397" lon="6.24866">
        <ele>1360.7661068268</ele>
        <time>2016-09-07T13:19:41Z</time>
      </trkpt>
      <trkpt lat="44.72389" lon="6.24866">
        <ele>1360.7331782526</ele>
        <time>2016-09-07T13:19:50Z</time>
      </trkpt>
      <trkpt lat="44.72381" lon="6.2487">
        <ele>1358.788475792</ele>
        <time>2016-09-07T13:19:59Z</time>
      </trkpt>
      <trkpt lat="44.72372" lon="6.24874">
        <ele>1358.0603812252</ele>
        <time>2016-09-07T13:20:07Z</time>
      </trkpt>
      <trkpt lat="44.72364" lon="6.24877">
        <ele>1357.5769302444</ele>
        <time>2016-09-07T13:20:17Z</time>
      </trkpt>
      <trkpt lat="44.72356" lon="6.24883">
        <ele>1354.0533956331</ele>
        <time>2016-09-07T13:20:25Z</time>
      </trkpt>
      <trkpt lat="44.72348" lon="6.24885">
        <ele>1358.0024186682</ele>
        <time>2016-09-07T13:20:36Z</time>
      </trkpt>
      <trkpt lat="44.72343" lon="6.24892">
        <ele>1356.3734849633</ele>
        <time>2016-09-07T13:20:43Z</time>
      </trkpt>
      <trkpt lat="44.72345" lon="6.24904">
        <ele>1352.382017406</ele>
        <time>2016-09-07T13:20:51Z</time>
      </trkpt>
      <trkpt lat="44.72352" lon="6.24911">
        <ele>1353.0126935755</ele>
        <time>2016-09-07T13:20:59Z</time>
      </trkpt>
      <trkpt lat="44.7236" lon="6.24916">
        <ele>1350.1887949251</ele>
        <time>2016-09-07T13:21:09Z</time>
      </trkpt>
      <trkpt lat="44.72363" lon="6.24928">
        <ele>1350.3189041693</ele>
        <time>2016-09-07T13:21:23Z</time>
      </trkpt>
      <trkpt lat="44.72367" lon="6.24939">
        <ele>1347.608903747</ele>
        <time>2016-09-07T13:21:33Z</time>
      </trkpt>
      <trkpt lat="44.72371" lon="6.2495">
        <ele>1344.2967400878</ele>
        <time>2016-09-07T13:21:45Z</time>
      </trkpt>
      <trkpt lat="44.72375" lon="6.24961">
        <ele>1347.0530174448</ele>
        <time>2016-09-07T13:21:54Z</time>
      </trkpt>
      <trkpt lat="44.72376" lon="6.24972">
        <ele>1346.0708352091</ele>
        <time>2016-09-07T13:22:03Z</time>
      </trkpt>
      <trkpt lat="44.72377" lon="6.24984">
        <ele>1345.0719001461</ele>
        <time>2016-09-07T13:22:11Z</time>
      </trkpt>
      <trkpt lat="44.72374" lon="6.24996">
        <ele>1338.1214600194</ele>
        <time>2016-09-07T13:22:24Z</time>
      </trkpt>
      <trkpt lat="44.72371" lon="6.25007">
        <ele>1336.678012046</ele>
        <time>2016-09-07T13:22:32Z</time>
      </trkpt>
      <trkpt lat="44.72374" lon="6.25018">
        <ele>1338.1735035433</ele>
        <time>2016-09-07T13:22:40Z</time>
      </trkpt>
      <trkpt lat="44.72377" lon="6.25028">
        <ele>1332.6348343231</ele>
        <time>2016-09-07T13:22:47Z</time>
      </trkpt>
      <trkpt lat="44.72379" lon="6.2504">
        <ele>1334.7107548816</ele>
        <time>2016-09-07T13:22:56Z</time>
      </trkpt>
      <trkpt lat="44.7238" lon="6.25051">
        <ele>1333.8350669369</ele>
        <time>2016-09-07T13:23:07Z</time>
      </trkpt>
      <trkpt lat="44.72381" lon="6.25063">
        <ele>1331.7800009996</ele>
        <time>2016-09-07T13:23:17Z</time>
      </trkpt>
      <trkpt lat="44.72383" lon="6.25074">
        <ele>1333.4483681917</ele>
        <time>2016-09-07T13:23:28Z</time>
      </trkpt>
      <trkpt lat="44.72385" lon="6.25086">
        <ele>1332.3309774296</ele>
        <time>2016-09-07T13:23:44Z</time>
      </trkpt>
      <trkpt lat="44.72388" lon="6.25098">
        <ele>1327.110729292</ele>
        <time>2016-09-07T13:23:52Z</time>
      </trkpt>
      <trkpt lat="44.72387" lon="6.2511">
        <ele>1324.9282578668</ele>
        <time>2016-09-07T13:24:30Z</time>
      </trkpt>
      <trkpt lat="44.72392" lon="6.25119">
        <ele>1332.9030962763</ele>
        <time>2016-09-07T13:25:57Z</time>
      </trkpt>
      <trkpt lat="44.72393" lon="6.25129">
        <ele>1327.8673740253</ele>
        <time>2016-09-07T13:26:05Z</time>
      </trkpt>
      <trkpt lat="44.72393" lon="6.25147">
        <ele>1328.6485540997</ele>
        <time>2016-09-07T13:26:09Z</time>
      </trkpt>
      <trkpt lat="44.72389" lon="6.25168">
        <ele>1323.4980388861</ele>
        <time>2016-09-07T13:26:14Z</time>
      </trkpt>
      <trkpt lat="44.72388" lon="6.2518">
        <ele>1321.8812937494</ele>
        <time>2016-09-07T13:26:19Z</time>
      </trkpt>
      <trkpt lat="44.72383" lon="6.2519">
        <ele>1314.2442720421</ele>
        <time>2016-09-07T13:26:26Z</time>
      </trkpt>
      <trkpt lat="44.72375" lon="6.25197">
        <ele>1317.1954836389</ele>
        <time>2016-09-07T13:26:31Z</time>
      </trkpt>
      <trkpt lat="44.72378" lon="6.25208">
        <ele>1313.7935097432</ele>
        <time>2016-09-07T13:26:37Z</time>
      </trkpt>
      <trkpt lat="44.7238" lon="6.2522">
        <ele>1311.6892313799</ele>
        <time>2016-09-07T13:26:43Z</time>
      </trkpt>
      <trkpt lat="44.72385" lon="6.25229">
        <ele>1307.9623877946</ele>
        <time>2016-09-07T13:26:48Z</time>
      </trkpt>
      <trkpt lat="44.72388" lon="6.25241">
        <ele>1311.4773783581</ele>
        <time>2016-09-07T13:26:53Z</time>
      </trkpt>
      <trkpt lat="44.72392" lon="6.25252">
        <ele>1311.3559302008</ele>
        <time>2016-09-07T13:26:58Z</time>
      </trkpt>
      <trkpt lat="44.72398" lon="6.25261">
        <ele>1308.9487032918</ele>
        <time>2016-09-07T13:27:04Z</time>
      </trkpt>
      <trkpt lat="44.72401" lon="6.25272">
        <ele>1308.4874977339</ele>
        <time>2016-09-07T13:27:10Z</time>
      </trkpt>
      <trkpt lat="44.72405" lon="6.2528">
        <ele>1305.7875151457</ele>
        <time>2016-09-07T13:27:15Z</time>
      </trkpt>
      <trkpt lat="44.72411" lon="6.2529">
        <ele>1303.3956785602</ele>
        <time>2016-09-07T13:27:20Z</time>
      </trkpt>
      <trkpt lat="44.72414" lon="6.253">
        <ele>1301.2254345445</ele>
        <time>2016-09-07T13:27:27Z</time>
      </trkpt>
      <trkpt lat="44.72419" lon="6.25309">
        <ele>1299.3317896938</ele>
        <time>2016-09-07T13:27:34Z</time>
      </trkpt>
      <trkpt lat="44.72423" lon="6.25319">
        <ele>1302.6207308741</ele>
        <time>2016-09-07T13:27:40Z</time>
      </trkpt>
      <trkpt lat="44.72428" lon="6.25329">
        <ele>1302.7520523984</ele>
        <time>2016-09-07T13:27:45Z</time>
      </trkpt>
      <trkpt lat="44.72432" lon="6.25339">
        <ele>1300.3443567948</ele>
        <time>2016-09-07T13:27:51Z</time>
      </trkpt>
      <trkpt lat="44.72436" lon="6.25351">
        <ele>1300.7901113918</ele>
        <time>2016-09-07T13:28:02Z</time>
      </trkpt>
      <trkpt lat="44.72442" lon="6.2536">
        <ele>1298.68708573</ele>
        <time>2016-09-07T13:28:13Z</time>
      </trkpt>
      <trkpt lat="44.72447" lon="6.2537">
        <ele>1298.4668499371</ele>
        <time>2016-09-07T13:28:21Z</time>
      </trkpt>
      <trkpt lat="44.72451" lon="6.2538">
        <ele>1297.3279482983</ele>
        <time>2016-09-07T13:28:33Z</time>
      </trkpt>
      <trkpt lat="44.72459" lon="6.25384">
        <ele>1297.1255977685</ele>
        <time>2016-09-07T13:28:42Z</time>
      </trkpt>
      <trkpt lat="44.72467" lon="6.25386">
        <ele>1296.160919304</ele>
        <time>2016-09-07T13:28:49Z</time>
      </trkpt>
      <trkpt lat="44.72475" lon="6.25385">
        <ele>1292.1502370751</ele>
        <time>2016-09-07T13:29:01Z</time>
      </trkpt>
      <trkpt lat="44.72483" lon="6.25381">
        <ele>1289.8370808382</ele>
        <time>2016-09-07T13:29:11Z</time>
      </trkpt>
      <trkpt lat="44.72492" lon="6.2538">
        <ele>1287.8402947998</ele>
        <time>2016-09-07T13:29:18Z</time>
      </trkpt>
      <trkpt lat="44.725" lon="6.25377">
        <ele>1291.7279914171</ele>
        <time>2016-09-07T13:29:28Z</time>
      </trkpt>
      <trkpt lat="44.72508" lon="6.25383">
        <ele>1290.8412211202</ele>
        <time>2016-09-07T13:29:44Z</time>
      </trkpt>
      <trkpt lat="44.72507" lon="6.25395">
        <ele>1285.8486125702</ele>
        <time>2016-09-07T13:29:54Z</time>
      </trkpt>
      <trkpt lat="44.725" lon="6.25402">
        <ele>1287.3031495791</ele>
        <time>2016-09-07T13:30:04Z</time>
      </trkpt>
      <trkpt lat="44.72501" lon="6.25413">
        <ele>1285.9649956869</ele>
        <time>2016-09-07T13:30:11Z</time>
      </trkpt>
      <trkpt lat="44.72498" lon="6.25425">
        <ele>1288.6286292309</ele>
        <time>2016-09-07T13:30:21Z</time>
      </trkpt>
      <trkpt lat="44.72498" lon="6.25437">
        <ele>1284.4107960304</ele>
        <time>2016-09-07T13:30:30Z</time>
      </trkpt>
      <trkpt lat="44.72495" lon="6.25447">
        <ele>1289.5610049712</ele>
        <time>2016-09-07T13:30:40Z</time>
      </trkpt>
      <trkpt lat="44.72493" lon="6.25459">
        <ele>1286.7298359331</ele>
        <time>2016-09-07T13:30:48Z</time>
      </trkpt>
      <trkpt lat="44.72489" lon="6.2547">
        <ele>1286.975532298</ele>
        <time>2016-09-07T13:30:57Z</time>
      </trkpt>
      <trkpt lat="44.72486" lon="6.2548">
        <ele>1286.3111005621</ele>
        <time>2016-09-07T13:31:10Z</time>
      </trkpt>
      <trkpt lat="44.72494" lon="6.25482">
        <ele>1289.4813953768</ele>
        <time>2016-09-07T13:36:25Z</time>
      </trkpt>
      <trkpt lat="44.72511" lon="6.25507">
        <ele>1287.8076252593</ele>
        <time>2016-09-07T13:36:30Z</time>
      </trkpt>
      <trkpt lat="44.72522" lon="6.25541">
        <ele>1285.582032131</ele>
        <time>2016-09-07T13:36:34Z</time>
      </trkpt>
      <trkpt lat="44.72523" lon="6.25575">
        <ele>1284.5992880007</ele>
        <time>2016-09-07T13:36:38Z</time>
      </trkpt>
      <trkpt lat="44.72494" lon="6.25604">
        <ele>1286.1372695277</ele>
        <time>2016-09-07T13:36:43Z</time>
      </trkpt>
      <trkpt lat="44.72469" lon="6.25621">
        <ele>1287.5018454762</ele>
        <time>2016-09-07T13:36:47Z</time>
      </trkpt>
      <trkpt lat="44.72448" lon="6.25656">
        <ele>1287.7130211126</ele>
        <time>2016-09-07T13:36:51Z</time>
      </trkpt>
      <trkpt lat="44.72423" lon="6.25705">
        <ele>1287.6497291857</ele>
        <time>2016-09-07T13:36:56Z</time>
      </trkpt>
      <trkpt lat="44.72391" lon="6.25726">
        <ele>1286.0488984557</ele>
        <time>2016-09-07T13:37:00Z</time>
      </trkpt>
      <trkpt lat="44.72344" lon="6.25748">
        <ele>1283.9715643525</ele>
        <time>2016-09-07T13:37:05Z</time>
      </trkpt>
      <trkpt lat="44.72309" lon="6.25772">
        <ele>1278.5052562198</ele>
        <time>2016-09-07T13:37:09Z</time>
      </trkpt>
      <trkpt lat="44.72264" lon="6.2581">
        <ele>1269.7454946348</ele>
        <time>2016-09-07T13:37:14Z</time>
      </trkpt>
      <trkpt lat="44.7224" lon="6.25843">
        <ele>1266.88627131</ele>
        <time>2016-09-07T13:37:18Z</time>
      </trkpt>
      <trkpt lat="44.72211" lon="6.25866">
        <ele>1269.0166277979</ele>
        <time>2016-09-07T13:37:23Z</time>
      </trkpt>
      <trkpt lat="44.72183" lon="6.25892">
        <ele>1267.9991294146</ele>
        <time>2016-09-07T13:37:28Z</time>
      </trkpt>
      <trkpt lat="44.72156" lon="6.25901">
        <ele>1266.087065096</ele>
        <time>2016-09-07T13:37:32Z</time>
      </trkpt>
      <trkpt lat="44.72114" lon="6.25899">
        <ele>1258.576621688</ele>
        <time>2016-09-07T13:37:37Z</time>
      </trkpt>
      <trkpt lat="44.72083" lon="6.25909">
        <ele>1260.0749760205</ele>
        <time>2016-09-07T13:37:41Z</time>
      </trkpt>
      <trkpt lat="44.72043" lon="6.25919">
        <ele>1258.2374636438</ele>
        <time>2016-09-07T13:37:46Z</time>
      </trkpt>
      <trkpt lat="44.72004" lon="6.25901">
        <ele>1256.8257571347</ele>
        <time>2016-09-07T13:37:51Z</time>
      </trkpt>
      <trkpt lat="44.7197" lon="6.25909">
        <ele>1258.4760787478</ele>
        <time>2016-09-07T13:37:55Z</time>
      </trkpt>
      <trkpt lat="44.71919" lon="6.25936">
        <ele>1259.1753531173</ele>
        <time>2016-09-07T13:38:00Z</time>
      </trkpt>
      <trkpt lat="44.71875" lon="6.25957">
        <ele>1259.2608329458</ele>
        <time>2016-09-07T13:38:04Z</time>
      </trkpt>
      <trkpt lat="44.71812" lon="6.25975">
        <ele>1261.5136162648</ele>
        <time>2016-09-07T13:38:09Z</time>
      </trkpt>
      <trkpt lat="44.71768" lon="6.26011">
        <ele>1260.042484723</ele>
        <time>2016-09-07T13:38:13Z</time>
      </trkpt>
      <trkpt lat="44.71722" lon="6.26036">
        <ele>1263.9697827483</ele>
        <time>2016-09-07T13:38:17Z</time>
      </trkpt>
      <trkpt lat="44.71676" lon="6.26049">
        <ele>1261.6503188452</ele>
        <time>2016-09-07T13:38:21Z</time>
      </trkpt>
      <trkpt lat="44.71626" lon="6.26054">
        <ele>1260.3033668557</ele>
        <time>2016-09-07T13:38:25Z</time>
      </trkpt>
      <trkpt lat="44.71558" lon="6.2606">
        <ele>1256.5438034218</ele>
        <time>2016-09-07T13:38:30Z</time>
      </trkpt>
      <trkpt lat="44.71502" lon="6.26068">
        <ele>1251.7733866014</ele>
        <time>2016-09-07T13:38:34Z</time>
      </trkpt>
      <trkpt lat="44.71452" lon="6.26091">
        <ele>1252.7635286292</ele>
        <time>2016-09-07T13:38:39Z</time>
      </trkpt>
      <trkpt lat="44.71434" lon="6.26101">
        <ele>1253.7877183817</ele>
        <time>2016-09-07T13:38:41Z</time>
      </trkpt>
      <trkpt lat="44.71434" lon="6.26101">
        <ele>1253.7877183817</ele>
        <time>2016-09-07T13:38:41Z</time>
      </trkpt>
    </trkseg>
  </trk>
</gpx>